<?xml version="1.0" encoding="UTF-8" standalone="no" ?>
<gpx xmlns="http://www.topografix.com/GPX/1/1" xmlns:xsi="http://www.w3.org/2001/XMLSchema-instance" xsi:schemaLocation="http://www.topografix.com/GPX/1/1 http://www.topografix.com/GPX/1/1/gpx.xsd" version="1.1" creator="VisuGPX - https://www.visugpx.com">
  <metadata>
    <name>MILLAU J1 et 2</name>
  </metadata>
  <trk>
    <name><![CDATA[MILLAU J2 - Ravin de la Millière du Doul Run 3]]></name>
    <trkseg>
      <trkpt lat="44.14208" lon="3.20215">
        <ele>821.20001220703</ele>
        <time>2020-10-03T14:24:11.000Z</time>
      </trkpt>
      <trkpt lat="44.14208" lon="3.20214">
        <ele>821.20001220703</ele>
        <time>2020-10-03T14:24:12.000Z</time>
      </trkpt>
      <trkpt lat="44.14208" lon="3.20215">
        <ele>821.20001220703</ele>
        <time>2020-10-03T14:24:13.000Z</time>
      </trkpt>
      <trkpt lat="44.14208" lon="3.20215">
        <ele>821.40002441406</ele>
        <time>2020-10-03T14:24:15.000Z</time>
      </trkpt>
      <trkpt lat="44.14207" lon="3.20215">
        <ele>821.40002441406</ele>
        <time>2020-10-03T14:24:17.000Z</time>
      </trkpt>
      <trkpt lat="44.14207" lon="3.20216">
        <ele>821.40002441406</ele>
        <time>2020-10-03T14:24:19.000Z</time>
      </trkpt>
      <trkpt lat="44.14207" lon="3.20215">
        <ele>821.40002441406</ele>
        <time>2020-10-03T14:24:21.000Z</time>
      </trkpt>
      <trkpt lat="44.14206" lon="3.20215">
        <ele>821.40002441406</ele>
        <time>2020-10-03T14:24:23.000Z</time>
      </trkpt>
      <trkpt lat="44.14205" lon="3.20216">
        <ele>821.40002441406</ele>
        <time>2020-10-03T14:24:24.000Z</time>
      </trkpt>
      <trkpt lat="44.14203" lon="3.20215">
        <ele>821.40002441406</ele>
        <time>2020-10-03T14:24:26.000Z</time>
      </trkpt>
      <trkpt lat="44.14201" lon="3.20215">
        <ele>821.59997558594</ele>
        <time>2020-10-03T14:24:28.000Z</time>
      </trkpt>
      <trkpt lat="44.14198" lon="3.20215">
        <ele>821.59997558594</ele>
        <time>2020-10-03T14:24:30.000Z</time>
      </trkpt>
      <trkpt lat="44.14196" lon="3.20215">
        <ele>821.59997558594</ele>
        <time>2020-10-03T14:24:32.000Z</time>
      </trkpt>
      <trkpt lat="44.14194" lon="3.20215">
        <ele>821.59997558594</ele>
        <time>2020-10-03T14:24:33.000Z</time>
      </trkpt>
      <trkpt lat="44.14192" lon="3.20215">
        <ele>821.59997558594</ele>
        <time>2020-10-03T14:24:34.000Z</time>
      </trkpt>
      <trkpt lat="44.14188" lon="3.20214">
        <ele>821.59997558594</ele>
        <time>2020-10-03T14:24:36.000Z</time>
      </trkpt>
      <trkpt lat="44.14187" lon="3.20214">
        <ele>821.59997558594</ele>
        <time>2020-10-03T14:24:37.000Z</time>
      </trkpt>
      <trkpt lat="44.14186" lon="3.20215">
        <ele>821.59997558594</ele>
        <time>2020-10-03T14:24:38.000Z</time>
      </trkpt>
      <trkpt lat="44.14186" lon="3.20218">
        <ele>821.59997558594</ele>
        <time>2020-10-03T14:24:39.000Z</time>
      </trkpt>
      <trkpt lat="44.14187" lon="3.20219">
        <ele>821.40002441406</ele>
        <time>2020-10-03T14:24:40.000Z</time>
      </trkpt>
      <trkpt lat="44.14189" lon="3.20219">
        <ele>821.40002441406</ele>
        <time>2020-10-03T14:24:42.000Z</time>
      </trkpt>
      <trkpt lat="44.1419" lon="3.20219">
        <ele>821.40002441406</ele>
        <time>2020-10-03T14:24:43.000Z</time>
      </trkpt>
      <trkpt lat="44.14191" lon="3.20218">
        <ele>821.40002441406</ele>
        <time>2020-10-03T14:24:44.000Z</time>
      </trkpt>
      <trkpt lat="44.14193" lon="3.20218">
        <ele>821.40002441406</ele>
        <time>2020-10-03T14:24:45.000Z</time>
      </trkpt>
      <trkpt lat="44.14194" lon="3.20218">
        <ele>821.40002441406</ele>
        <time>2020-10-03T14:24:46.000Z</time>
      </trkpt>
      <trkpt lat="44.14198" lon="3.20218">
        <ele>821.40002441406</ele>
        <time>2020-10-03T14:24:48.000Z</time>
      </trkpt>
      <trkpt lat="44.14201" lon="3.20218">
        <ele>821.40002441406</ele>
        <time>2020-10-03T14:24:50.000Z</time>
      </trkpt>
      <trkpt lat="44.14203" lon="3.20217">
        <ele>821.40002441406</ele>
        <time>2020-10-03T14:24:51.000Z</time>
      </trkpt>
      <trkpt lat="44.14205" lon="3.20217">
        <ele>821.40002441406</ele>
        <time>2020-10-03T14:24:52.000Z</time>
      </trkpt>
      <trkpt lat="44.14209" lon="3.20218">
        <ele>821.20001220703</ele>
        <time>2020-10-03T14:24:54.000Z</time>
      </trkpt>
      <trkpt lat="44.1421" lon="3.20218">
        <ele>821.20001220703</ele>
        <time>2020-10-03T14:24:55.000Z</time>
      </trkpt>
      <trkpt lat="44.14212" lon="3.20218">
        <ele>821</ele>
        <time>2020-10-03T14:24:56.000Z</time>
      </trkpt>
      <trkpt lat="44.14213" lon="3.20218">
        <ele>821</ele>
        <time>2020-10-03T14:24:57.000Z</time>
      </trkpt>
      <trkpt lat="44.14215" lon="3.20218">
        <ele>821</ele>
        <time>2020-10-03T14:24:58.000Z</time>
      </trkpt>
      <trkpt lat="44.14217" lon="3.20217">
        <ele>821</ele>
        <time>2020-10-03T14:24:59.000Z</time>
      </trkpt>
      <trkpt lat="44.14217" lon="3.20215">
        <ele>820.79998779297</ele>
        <time>2020-10-03T14:25:00.000Z</time>
      </trkpt>
      <trkpt lat="44.14216" lon="3.20215">
        <ele>820.79998779297</ele>
        <time>2020-10-03T14:25:01.000Z</time>
      </trkpt>
      <trkpt lat="44.14214" lon="3.20216">
        <ele>820.79998779297</ele>
        <time>2020-10-03T14:25:02.000Z</time>
      </trkpt>
      <trkpt lat="44.1421" lon="3.20219">
        <ele>820.79998779297</ele>
        <time>2020-10-03T14:25:04.000Z</time>
      </trkpt>
      <trkpt lat="44.14208" lon="3.2022">
        <ele>820.79998779297</ele>
        <time>2020-10-03T14:25:05.000Z</time>
      </trkpt>
      <trkpt lat="44.14205" lon="3.2022">
        <ele>820.79998779297</ele>
        <time>2020-10-03T14:25:06.000Z</time>
      </trkpt>
      <trkpt lat="44.14202" lon="3.20219">
        <ele>820.79998779297</ele>
        <time>2020-10-03T14:25:08.000Z</time>
      </trkpt>
      <trkpt lat="44.142" lon="3.20219">
        <ele>820.79998779297</ele>
        <time>2020-10-03T14:25:10.000Z</time>
      </trkpt>
      <trkpt lat="44.14199" lon="3.20219">
        <ele>820.79998779297</ele>
        <time>2020-10-03T14:25:11.000Z</time>
      </trkpt>
      <trkpt lat="44.14198" lon="3.20219">
        <ele>820.79998779297</ele>
        <time>2020-10-03T14:25:12.000Z</time>
      </trkpt>
      <trkpt lat="44.14197" lon="3.2022">
        <ele>820.79998779297</ele>
        <time>2020-10-03T14:25:14.000Z</time>
      </trkpt>
      <trkpt lat="44.14196" lon="3.2022">
        <ele>821</ele>
        <time>2020-10-03T14:25:16.000Z</time>
      </trkpt>
      <trkpt lat="44.14195" lon="3.20221">
        <ele>821</ele>
        <time>2020-10-03T14:25:17.000Z</time>
      </trkpt>
      <trkpt lat="44.14194" lon="3.20221">
        <ele>821.20001220703</ele>
        <time>2020-10-03T14:25:18.000Z</time>
      </trkpt>
      <trkpt lat="44.14192" lon="3.20221">
        <ele>821.20001220703</ele>
        <time>2020-10-03T14:25:20.000Z</time>
      </trkpt>
      <trkpt lat="44.1419" lon="3.2022">
        <ele>821.20001220703</ele>
        <time>2020-10-03T14:25:22.000Z</time>
      </trkpt>
      <trkpt lat="44.14189" lon="3.20221">
        <ele>821.20001220703</ele>
        <time>2020-10-03T14:25:24.000Z</time>
      </trkpt>
      <trkpt lat="44.14191" lon="3.20217">
        <ele>821.20001220703</ele>
        <time>2020-10-03T14:25:25.000Z</time>
      </trkpt>
      <trkpt lat="44.14192" lon="3.20215">
        <ele>821.20001220703</ele>
        <time>2020-10-03T14:25:26.000Z</time>
      </trkpt>
      <trkpt lat="44.14191" lon="3.20213">
        <ele>821.20001220703</ele>
        <time>2020-10-03T14:25:28.000Z</time>
      </trkpt>
      <trkpt lat="44.1419" lon="3.2021">
        <ele>821.20001220703</ele>
        <time>2020-10-03T14:25:30.000Z</time>
      </trkpt>
      <trkpt lat="44.14189" lon="3.20207">
        <ele>821.20001220703</ele>
        <time>2020-10-03T14:25:32.000Z</time>
      </trkpt>
      <trkpt lat="44.14189" lon="3.20205">
        <ele>821.59997558594</ele>
        <time>2020-10-03T14:25:34.000Z</time>
      </trkpt>
      <trkpt lat="44.14189" lon="3.20201">
        <ele>821.79998779297</ele>
        <time>2020-10-03T14:25:36.000Z</time>
      </trkpt>
      <trkpt lat="44.1419" lon="3.20198">
        <ele>822</ele>
        <time>2020-10-03T14:25:38.000Z</time>
      </trkpt>
      <trkpt lat="44.14189" lon="3.20194">
        <ele>822.20001220703</ele>
        <time>2020-10-03T14:25:40.000Z</time>
      </trkpt>
      <trkpt lat="44.14189" lon="3.20192">
        <ele>822.40002441406</ele>
        <time>2020-10-03T14:25:41.000Z</time>
      </trkpt>
      <trkpt lat="44.1419" lon="3.2019">
        <ele>822.59997558594</ele>
        <time>2020-10-03T14:25:42.000Z</time>
      </trkpt>
      <trkpt lat="44.14189" lon="3.20187">
        <ele>822.79998779297</ele>
        <time>2020-10-03T14:25:44.000Z</time>
      </trkpt>
      <trkpt lat="44.14189" lon="3.20183">
        <ele>823.20001220703</ele>
        <time>2020-10-03T14:25:46.000Z</time>
      </trkpt>
      <trkpt lat="44.14188" lon="3.2018">
        <ele>823.40002441406</ele>
        <time>2020-10-03T14:25:48.000Z</time>
      </trkpt>
      <trkpt lat="44.14188" lon="3.20177">
        <ele>823.59997558594</ele>
        <time>2020-10-03T14:25:50.000Z</time>
      </trkpt>
      <trkpt lat="44.14189" lon="3.20175">
        <ele>823.59997558594</ele>
        <time>2020-10-03T14:25:51.000Z</time>
      </trkpt>
      <trkpt lat="44.14189" lon="3.20174">
        <ele>823.79998779297</ele>
        <time>2020-10-03T14:25:52.000Z</time>
      </trkpt>
      <trkpt lat="44.1419" lon="3.20171">
        <ele>823.79998779297</ele>
        <time>2020-10-03T14:25:54.000Z</time>
      </trkpt>
      <trkpt lat="44.1419" lon="3.20166">
        <ele>824</ele>
        <time>2020-10-03T14:25:56.000Z</time>
      </trkpt>
      <trkpt lat="44.1419" lon="3.20162">
        <ele>824</ele>
        <time>2020-10-03T14:25:58.000Z</time>
      </trkpt>
      <trkpt lat="44.1419" lon="3.20159">
        <ele>824</ele>
        <time>2020-10-03T14:26:00.000Z</time>
      </trkpt>
      <trkpt lat="44.1419" lon="3.20155">
        <ele>824</ele>
        <time>2020-10-03T14:26:02.000Z</time>
      </trkpt>
      <trkpt lat="44.14192" lon="3.2015">
        <ele>824</ele>
        <time>2020-10-03T14:26:04.000Z</time>
      </trkpt>
      <trkpt lat="44.14196" lon="3.20143">
        <ele>824</ele>
        <time>2020-10-03T14:26:06.000Z</time>
      </trkpt>
      <trkpt lat="44.14198" lon="3.2014">
        <ele>824</ele>
        <time>2020-10-03T14:26:07.000Z</time>
      </trkpt>
      <trkpt lat="44.14199" lon="3.20135">
        <ele>823.79998779297</ele>
        <time>2020-10-03T14:26:08.000Z</time>
      </trkpt>
      <trkpt lat="44.14199" lon="3.2013">
        <ele>823.79998779297</ele>
        <time>2020-10-03T14:26:09.000Z</time>
      </trkpt>
      <trkpt lat="44.14199" lon="3.20125">
        <ele>823.59997558594</ele>
        <time>2020-10-03T14:26:10.000Z</time>
      </trkpt>
      <trkpt lat="44.14199" lon="3.20122">
        <ele>823.40002441406</ele>
        <time>2020-10-03T14:26:11.000Z</time>
      </trkpt>
      <trkpt lat="44.142" lon="3.2012">
        <ele>823.40002441406</ele>
        <time>2020-10-03T14:26:12.000Z</time>
      </trkpt>
      <trkpt lat="44.14203" lon="3.20114">
        <ele>823.20001220703</ele>
        <time>2020-10-03T14:26:14.000Z</time>
      </trkpt>
      <trkpt lat="44.14203" lon="3.20108">
        <ele>823</ele>
        <time>2020-10-03T14:26:15.000Z</time>
      </trkpt>
      <trkpt lat="44.14203" lon="3.20103">
        <ele>822.59997558594</ele>
        <time>2020-10-03T14:26:16.000Z</time>
      </trkpt>
      <trkpt lat="44.14204" lon="3.20091">
        <ele>822</ele>
        <time>2020-10-03T14:26:18.000Z</time>
      </trkpt>
      <trkpt lat="44.14205" lon="3.20078">
        <ele>821</ele>
        <time>2020-10-03T14:26:20.000Z</time>
      </trkpt>
      <trkpt lat="44.14205" lon="3.20071">
        <ele>820.79998779297</ele>
        <time>2020-10-03T14:26:21.000Z</time>
      </trkpt>
      <trkpt lat="44.14206" lon="3.20063">
        <ele>820.59997558594</ele>
        <time>2020-10-03T14:26:22.000Z</time>
      </trkpt>
      <trkpt lat="44.14207" lon="3.20055">
        <ele>820.40002441406</ele>
        <time>2020-10-03T14:26:23.000Z</time>
      </trkpt>
      <trkpt lat="44.14208" lon="3.20048">
        <ele>820.20001220703</ele>
        <time>2020-10-03T14:26:24.000Z</time>
      </trkpt>
      <trkpt lat="44.14209" lon="3.20043">
        <ele>820</ele>
        <time>2020-10-03T14:26:25.000Z</time>
      </trkpt>
      <trkpt lat="44.1421" lon="3.20039">
        <ele>819.40002441406</ele>
        <time>2020-10-03T14:26:26.000Z</time>
      </trkpt>
      <trkpt lat="44.14212" lon="3.2003">
        <ele>818.40002441406</ele>
        <time>2020-10-03T14:26:28.000Z</time>
      </trkpt>
      <trkpt lat="44.14213" lon="3.20024">
        <ele>818.20001220703</ele>
        <time>2020-10-03T14:26:29.000Z</time>
      </trkpt>
      <trkpt lat="44.14214" lon="3.20019">
        <ele>817.79998779297</ele>
        <time>2020-10-03T14:26:30.000Z</time>
      </trkpt>
      <trkpt lat="44.14213" lon="3.2001">
        <ele>817.40002441406</ele>
        <time>2020-10-03T14:26:32.000Z</time>
      </trkpt>
      <trkpt lat="44.14215" lon="3.19997">
        <ele>816.79998779297</ele>
        <time>2020-10-03T14:26:34.000Z</time>
      </trkpt>
      <trkpt lat="44.14216" lon="3.19988">
        <ele>816.59997558594</ele>
        <time>2020-10-03T14:26:35.000Z</time>
      </trkpt>
      <trkpt lat="44.14217" lon="3.19979">
        <ele>816.40002441406</ele>
        <time>2020-10-03T14:26:36.000Z</time>
      </trkpt>
      <trkpt lat="44.14213" lon="3.19961">
        <ele>815.59997558594</ele>
        <time>2020-10-03T14:26:38.000Z</time>
      </trkpt>
      <trkpt lat="44.1421" lon="3.19956">
        <ele>815.40002441406</ele>
        <time>2020-10-03T14:26:39.000Z</time>
      </trkpt>
      <trkpt lat="44.14206" lon="3.19951">
        <ele>814.79998779297</ele>
        <time>2020-10-03T14:26:40.000Z</time>
      </trkpt>
      <trkpt lat="44.14202" lon="3.19948">
        <ele>814.40002441406</ele>
        <time>2020-10-03T14:26:41.000Z</time>
      </trkpt>
      <trkpt lat="44.142" lon="3.19949">
        <ele>813.79998779297</ele>
        <time>2020-10-03T14:26:42.000Z</time>
      </trkpt>
      <trkpt lat="44.14199" lon="3.1995">
        <ele>813.59997558594</ele>
        <time>2020-10-03T14:26:43.000Z</time>
      </trkpt>
      <trkpt lat="44.14199" lon="3.19952">
        <ele>813.40002441406</ele>
        <time>2020-10-03T14:26:44.000Z</time>
      </trkpt>
      <trkpt lat="44.14197" lon="3.19955">
        <ele>812.79998779297</ele>
        <time>2020-10-03T14:26:46.000Z</time>
      </trkpt>
      <trkpt lat="44.14195" lon="3.19958">
        <ele>812</ele>
        <time>2020-10-03T14:26:47.000Z</time>
      </trkpt>
      <trkpt lat="44.14194" lon="3.1996">
        <ele>811.20001220703</ele>
        <time>2020-10-03T14:26:48.000Z</time>
      </trkpt>
      <trkpt lat="44.14191" lon="3.19962">
        <ele>810.40002441406</ele>
        <time>2020-10-03T14:26:49.000Z</time>
      </trkpt>
      <trkpt lat="44.14189" lon="3.19963">
        <ele>809.79998779297</ele>
        <time>2020-10-03T14:26:50.000Z</time>
      </trkpt>
      <trkpt lat="44.14186" lon="3.19962">
        <ele>809.40002441406</ele>
        <time>2020-10-03T14:26:51.000Z</time>
      </trkpt>
      <trkpt lat="44.14183" lon="3.19961">
        <ele>809.20001220703</ele>
        <time>2020-10-03T14:26:52.000Z</time>
      </trkpt>
      <trkpt lat="44.14179" lon="3.19958">
        <ele>808.59997558594</ele>
        <time>2020-10-03T14:26:54.000Z</time>
      </trkpt>
      <trkpt lat="44.14177" lon="3.19958">
        <ele>807.59997558594</ele>
        <time>2020-10-03T14:26:55.000Z</time>
      </trkpt>
      <trkpt lat="44.14173" lon="3.19959">
        <ele>806.79998779297</ele>
        <time>2020-10-03T14:26:56.000Z</time>
      </trkpt>
      <trkpt lat="44.14168" lon="3.1996">
        <ele>806</ele>
        <time>2020-10-03T14:26:57.000Z</time>
      </trkpt>
      <trkpt lat="44.14164" lon="3.19962">
        <ele>805</ele>
        <time>2020-10-03T14:26:58.000Z</time>
      </trkpt>
      <trkpt lat="44.14159" lon="3.19962">
        <ele>804.40002441406</ele>
        <time>2020-10-03T14:26:59.000Z</time>
      </trkpt>
      <trkpt lat="44.14154" lon="3.19962">
        <ele>804</ele>
        <time>2020-10-03T14:27:00.000Z</time>
      </trkpt>
      <trkpt lat="44.1415" lon="3.1996">
        <ele>803.20001220703</ele>
        <time>2020-10-03T14:27:01.000Z</time>
      </trkpt>
      <trkpt lat="44.14146" lon="3.1996">
        <ele>802.40002441406</ele>
        <time>2020-10-03T14:27:02.000Z</time>
      </trkpt>
      <trkpt lat="44.14142" lon="3.19961">
        <ele>801.40002441406</ele>
        <time>2020-10-03T14:27:03.000Z</time>
      </trkpt>
      <trkpt lat="44.14137" lon="3.19962">
        <ele>800.40002441406</ele>
        <time>2020-10-03T14:27:04.000Z</time>
      </trkpt>
      <trkpt lat="44.14132" lon="3.19963">
        <ele>799.40002441406</ele>
        <time>2020-10-03T14:27:05.000Z</time>
      </trkpt>
      <trkpt lat="44.14127" lon="3.19965">
        <ele>798.79998779297</ele>
        <time>2020-10-03T14:27:06.000Z</time>
      </trkpt>
      <trkpt lat="44.14122" lon="3.19967">
        <ele>798</ele>
        <time>2020-10-03T14:27:07.000Z</time>
      </trkpt>
      <trkpt lat="44.14116" lon="3.19969">
        <ele>796.40002441406</ele>
        <time>2020-10-03T14:27:08.000Z</time>
      </trkpt>
      <trkpt lat="44.14111" lon="3.1997">
        <ele>795.20001220703</ele>
        <time>2020-10-03T14:27:09.000Z</time>
      </trkpt>
      <trkpt lat="44.14106" lon="3.1997">
        <ele>793.79998779297</ele>
        <time>2020-10-03T14:27:10.000Z</time>
      </trkpt>
      <trkpt lat="44.14102" lon="3.19972">
        <ele>792.79998779297</ele>
        <time>2020-10-03T14:27:11.000Z</time>
      </trkpt>
      <trkpt lat="44.14098" lon="3.19974">
        <ele>791.40002441406</ele>
        <time>2020-10-03T14:27:12.000Z</time>
      </trkpt>
      <trkpt lat="44.1409" lon="3.19974">
        <ele>789.59997558594</ele>
        <time>2020-10-03T14:27:14.000Z</time>
      </trkpt>
      <trkpt lat="44.14085" lon="3.19974">
        <ele>788.40002441406</ele>
        <time>2020-10-03T14:27:15.000Z</time>
      </trkpt>
      <trkpt lat="44.14082" lon="3.19975">
        <ele>786.79998779297</ele>
        <time>2020-10-03T14:27:16.000Z</time>
      </trkpt>
      <trkpt lat="44.14079" lon="3.19977">
        <ele>785.20001220703</ele>
        <time>2020-10-03T14:27:17.000Z</time>
      </trkpt>
      <trkpt lat="44.14075" lon="3.19979">
        <ele>783.79998779297</ele>
        <time>2020-10-03T14:27:18.000Z</time>
      </trkpt>
      <trkpt lat="44.14071" lon="3.1998">
        <ele>782.59997558594</ele>
        <time>2020-10-03T14:27:19.000Z</time>
      </trkpt>
      <trkpt lat="44.14067" lon="3.1998">
        <ele>781.79998779297</ele>
        <time>2020-10-03T14:27:20.000Z</time>
      </trkpt>
      <trkpt lat="44.14063" lon="3.1998">
        <ele>781</ele>
        <time>2020-10-03T14:27:21.000Z</time>
      </trkpt>
      <trkpt lat="44.14057" lon="3.1998">
        <ele>780.40002441406</ele>
        <time>2020-10-03T14:27:22.000Z</time>
      </trkpt>
      <trkpt lat="44.14052" lon="3.19979">
        <ele>779.79998779297</ele>
        <time>2020-10-03T14:27:23.000Z</time>
      </trkpt>
      <trkpt lat="44.14047" lon="3.19977">
        <ele>779.40002441406</ele>
        <time>2020-10-03T14:27:24.000Z</time>
      </trkpt>
      <trkpt lat="44.14036" lon="3.19974">
        <ele>779</ele>
        <time>2020-10-03T14:27:26.000Z</time>
      </trkpt>
      <trkpt lat="44.1403" lon="3.19974">
        <ele>778.40002441406</ele>
        <time>2020-10-03T14:27:27.000Z</time>
      </trkpt>
      <trkpt lat="44.14024" lon="3.19976">
        <ele>778.20001220703</ele>
        <time>2020-10-03T14:27:28.000Z</time>
      </trkpt>
      <trkpt lat="44.14012" lon="3.19977">
        <ele>777.79998779297</ele>
        <time>2020-10-03T14:27:30.000Z</time>
      </trkpt>
      <trkpt lat="44.14003" lon="3.19978">
        <ele>777.59997558594</ele>
        <time>2020-10-03T14:27:32.000Z</time>
      </trkpt>
      <trkpt lat="44.13993" lon="3.1998">
        <ele>777.20001220703</ele>
        <time>2020-10-03T14:27:34.000Z</time>
      </trkpt>
      <trkpt lat="44.13984" lon="3.19982">
        <ele>776.40002441406</ele>
        <time>2020-10-03T14:27:36.000Z</time>
      </trkpt>
      <trkpt lat="44.13978" lon="3.19982">
        <ele>775.59997558594</ele>
        <time>2020-10-03T14:27:37.000Z</time>
      </trkpt>
      <trkpt lat="44.13973" lon="3.19981">
        <ele>775.20001220703</ele>
        <time>2020-10-03T14:27:38.000Z</time>
      </trkpt>
      <trkpt lat="44.13961" lon="3.19981">
        <ele>774.40002441406</ele>
        <time>2020-10-03T14:27:40.000Z</time>
      </trkpt>
      <trkpt lat="44.13951" lon="3.19979">
        <ele>773.79998779297</ele>
        <time>2020-10-03T14:27:42.000Z</time>
      </trkpt>
      <trkpt lat="44.13946" lon="3.19979">
        <ele>773.40002441406</ele>
        <time>2020-10-03T14:27:43.000Z</time>
      </trkpt>
      <trkpt lat="44.13942" lon="3.19978">
        <ele>773.20001220703</ele>
        <time>2020-10-03T14:27:44.000Z</time>
      </trkpt>
      <trkpt lat="44.13933" lon="3.19976">
        <ele>772.79998779297</ele>
        <time>2020-10-03T14:27:46.000Z</time>
      </trkpt>
      <trkpt lat="44.13923" lon="3.19971">
        <ele>772.20001220703</ele>
        <time>2020-10-03T14:27:48.000Z</time>
      </trkpt>
      <trkpt lat="44.13914" lon="3.19965">
        <ele>771.20001220703</ele>
        <time>2020-10-03T14:27:50.000Z</time>
      </trkpt>
      <trkpt lat="44.13908" lon="3.19962">
        <ele>770.79998779297</ele>
        <time>2020-10-03T14:27:51.000Z</time>
      </trkpt>
      <trkpt lat="44.13903" lon="3.1996">
        <ele>770</ele>
        <time>2020-10-03T14:27:52.000Z</time>
      </trkpt>
      <trkpt lat="44.13898" lon="3.19959">
        <ele>769.79998779297</ele>
        <time>2020-10-03T14:27:53.000Z</time>
      </trkpt>
      <trkpt lat="44.13891" lon="3.19958">
        <ele>769.40002441406</ele>
        <time>2020-10-03T14:27:54.000Z</time>
      </trkpt>
      <trkpt lat="44.13878" lon="3.19956">
        <ele>769.20001220703</ele>
        <time>2020-10-03T14:27:56.000Z</time>
      </trkpt>
      <trkpt lat="44.13865" lon="3.19954">
        <ele>769</ele>
        <time>2020-10-03T14:27:58.000Z</time>
      </trkpt>
      <trkpt lat="44.13852" lon="3.19951">
        <ele>768.79998779297</ele>
        <time>2020-10-03T14:28:00.000Z</time>
      </trkpt>
      <trkpt lat="44.13846" lon="3.1995">
        <ele>768.59997558594</ele>
        <time>2020-10-03T14:28:01.000Z</time>
      </trkpt>
      <trkpt lat="44.1384" lon="3.19948">
        <ele>768.40002441406</ele>
        <time>2020-10-03T14:28:02.000Z</time>
      </trkpt>
      <trkpt lat="44.13829" lon="3.19944">
        <ele>768.20001220703</ele>
        <time>2020-10-03T14:28:04.000Z</time>
      </trkpt>
      <trkpt lat="44.1382" lon="3.19943">
        <ele>768</ele>
        <time>2020-10-03T14:28:06.000Z</time>
      </trkpt>
      <trkpt lat="44.13818" lon="3.19942">
        <ele>767.79998779297</ele>
        <time>2020-10-03T14:28:07.000Z</time>
      </trkpt>
      <trkpt lat="44.13815" lon="3.19943">
        <ele>767.59997558594</ele>
        <time>2020-10-03T14:28:08.000Z</time>
      </trkpt>
      <trkpt lat="44.13812" lon="3.19943">
        <ele>767.40002441406</ele>
        <time>2020-10-03T14:28:09.000Z</time>
      </trkpt>
      <trkpt lat="44.1381" lon="3.19943">
        <ele>767.20001220703</ele>
        <time>2020-10-03T14:28:10.000Z</time>
      </trkpt>
      <trkpt lat="44.13807" lon="3.19943">
        <ele>767</ele>
        <time>2020-10-03T14:28:12.000Z</time>
      </trkpt>
      <trkpt lat="44.13804" lon="3.19942">
        <ele>767</ele>
        <time>2020-10-03T14:28:14.000Z</time>
      </trkpt>
      <trkpt lat="44.13801" lon="3.19942">
        <ele>767.20001220703</ele>
        <time>2020-10-03T14:28:15.000Z</time>
      </trkpt>
      <trkpt lat="44.13798" lon="3.19942">
        <ele>767.20001220703</ele>
        <time>2020-10-03T14:28:16.000Z</time>
      </trkpt>
      <trkpt lat="44.13793" lon="3.19945">
        <ele>767.59997558594</ele>
        <time>2020-10-03T14:28:18.000Z</time>
      </trkpt>
      <trkpt lat="44.13788" lon="3.19946">
        <ele>767.79998779297</ele>
        <time>2020-10-03T14:28:20.000Z</time>
      </trkpt>
      <trkpt lat="44.13785" lon="3.19946">
        <ele>768.79998779297</ele>
        <time>2020-10-03T14:28:22.000Z</time>
      </trkpt>
      <trkpt lat="44.13784" lon="3.19946">
        <ele>769.20001220703</ele>
        <time>2020-10-03T14:28:23.000Z</time>
      </trkpt>
      <trkpt lat="44.13782" lon="3.19946">
        <ele>769.79998779297</ele>
        <time>2020-10-03T14:28:24.000Z</time>
      </trkpt>
      <trkpt lat="44.13779" lon="3.19948">
        <ele>770.20001220703</ele>
        <time>2020-10-03T14:28:26.000Z</time>
      </trkpt>
      <trkpt lat="44.13775" lon="3.19948">
        <ele>770.59997558594</ele>
        <time>2020-10-03T14:28:28.000Z</time>
      </trkpt>
      <trkpt lat="44.13769" lon="3.19946">
        <ele>770.79998779297</ele>
        <time>2020-10-03T14:28:30.000Z</time>
      </trkpt>
      <trkpt lat="44.13766" lon="3.19946">
        <ele>770.79998779297</ele>
        <time>2020-10-03T14:28:31.000Z</time>
      </trkpt>
      <trkpt lat="44.13763" lon="3.19946">
        <ele>770.79998779297</ele>
        <time>2020-10-03T14:28:32.000Z</time>
      </trkpt>
      <trkpt lat="44.13758" lon="3.19948">
        <ele>770.79998779297</ele>
        <time>2020-10-03T14:28:34.000Z</time>
      </trkpt>
      <trkpt lat="44.13756" lon="3.19949">
        <ele>770.79998779297</ele>
        <time>2020-10-03T14:28:35.000Z</time>
      </trkpt>
      <trkpt lat="44.13755" lon="3.19948">
        <ele>770.79998779297</ele>
        <time>2020-10-03T14:28:36.000Z</time>
      </trkpt>
      <trkpt lat="44.13753" lon="3.19946">
        <ele>770.79998779297</ele>
        <time>2020-10-03T14:28:38.000Z</time>
      </trkpt>
      <trkpt lat="44.13752" lon="3.19947">
        <ele>770.79998779297</ele>
        <time>2020-10-03T14:28:40.000Z</time>
      </trkpt>
      <trkpt lat="44.13751" lon="3.19949">
        <ele>770.79998779297</ele>
        <time>2020-10-03T14:28:42.000Z</time>
      </trkpt>
      <trkpt lat="44.13751" lon="3.19948">
        <ele>770.40002441406</ele>
        <time>2020-10-03T14:28:43.000Z</time>
      </trkpt>
      <trkpt lat="44.13751" lon="3.19948">
        <ele>770.40002441406</ele>
        <time>2020-10-03T14:28:44.000Z</time>
      </trkpt>
      <trkpt lat="44.1375" lon="3.19948">
        <ele>770.20001220703</ele>
        <time>2020-10-03T14:28:46.000Z</time>
      </trkpt>
      <trkpt lat="44.1375" lon="3.19947">
        <ele>770.20001220703</ele>
        <time>2020-10-03T14:28:48.000Z</time>
      </trkpt>
      <trkpt lat="44.1375" lon="3.19947">
        <ele>770</ele>
        <time>2020-10-03T14:28:50.000Z</time>
      </trkpt>
      <trkpt lat="44.1375" lon="3.19947">
        <ele>769.79998779297</ele>
        <time>2020-10-03T14:28:52.000Z</time>
      </trkpt>
      <trkpt lat="44.1375" lon="3.19947">
        <ele>769.79998779297</ele>
        <time>2020-10-03T14:28:53.000Z</time>
      </trkpt>
      <trkpt lat="44.1375" lon="3.19947">
        <ele>769.59997558594</ele>
        <time>2020-10-03T14:28:54.000Z</time>
      </trkpt>
      <trkpt lat="44.1375" lon="3.19947">
        <ele>769.59997558594</ele>
        <time>2020-10-03T14:28:56.000Z</time>
      </trkpt>
      <trkpt lat="44.1375" lon="3.19946">
        <ele>769.40002441406</ele>
        <time>2020-10-03T14:28:58.000Z</time>
      </trkpt>
      <trkpt lat="44.13749" lon="3.19946">
        <ele>769.20001220703</ele>
        <time>2020-10-03T14:29:00.000Z</time>
      </trkpt>
      <trkpt lat="44.13749" lon="3.19946">
        <ele>769</ele>
        <time>2020-10-03T14:29:02.000Z</time>
      </trkpt>
      <trkpt lat="44.13749" lon="3.19947">
        <ele>769</ele>
        <time>2020-10-03T14:29:04.000Z</time>
      </trkpt>
      <trkpt lat="44.13749" lon="3.19947">
        <ele>769</ele>
        <time>2020-10-03T14:29:05.000Z</time>
      </trkpt>
      <trkpt lat="44.13749" lon="3.19947">
        <ele>769</ele>
        <time>2020-10-03T14:29:06.000Z</time>
      </trkpt>
      <trkpt lat="44.13749" lon="3.19947">
        <ele>768.79998779297</ele>
        <time>2020-10-03T14:29:08.000Z</time>
      </trkpt>
      <trkpt lat="44.13749" lon="3.19947">
        <ele>768.79998779297</ele>
        <time>2020-10-03T14:29:09.000Z</time>
      </trkpt>
      <trkpt lat="44.13749" lon="3.19947">
        <ele>768.79998779297</ele>
        <time>2020-10-03T14:29:10.000Z</time>
      </trkpt>
      <trkpt lat="44.13749" lon="3.19947">
        <ele>768.59997558594</ele>
        <time>2020-10-03T14:29:12.000Z</time>
      </trkpt>
      <trkpt lat="44.13748" lon="3.19948">
        <ele>768.59997558594</ele>
        <time>2020-10-03T14:29:14.000Z</time>
      </trkpt>
      <trkpt lat="44.13749" lon="3.19947">
        <ele>768.59997558594</ele>
        <time>2020-10-03T14:29:16.000Z</time>
      </trkpt>
      <trkpt lat="44.13748" lon="3.19946">
        <ele>768.79998779297</ele>
        <time>2020-10-03T14:29:18.000Z</time>
      </trkpt>
      <trkpt lat="44.13748" lon="3.19946">
        <ele>768.79998779297</ele>
        <time>2020-10-03T14:29:20.000Z</time>
      </trkpt>
      <trkpt lat="44.13748" lon="3.19945">
        <ele>768.79998779297</ele>
        <time>2020-10-03T14:29:21.000Z</time>
      </trkpt>
      <trkpt lat="44.13748" lon="3.19945">
        <ele>768.79998779297</ele>
        <time>2020-10-03T14:29:22.000Z</time>
      </trkpt>
      <trkpt lat="44.13748" lon="3.19945">
        <ele>768.79998779297</ele>
        <time>2020-10-03T14:29:24.000Z</time>
      </trkpt>
      <trkpt lat="44.13747" lon="3.19946">
        <ele>768.79998779297</ele>
        <time>2020-10-03T14:29:26.000Z</time>
      </trkpt>
      <trkpt lat="44.13747" lon="3.19947">
        <ele>768.79998779297</ele>
        <time>2020-10-03T14:29:28.000Z</time>
      </trkpt>
      <trkpt lat="44.13746" lon="3.19947">
        <ele>768.79998779297</ele>
        <time>2020-10-03T14:29:30.000Z</time>
      </trkpt>
      <trkpt lat="44.13746" lon="3.19947">
        <ele>768.79998779297</ele>
        <time>2020-10-03T14:29:31.000Z</time>
      </trkpt>
      <trkpt lat="44.13746" lon="3.19946">
        <ele>768.79998779297</ele>
        <time>2020-10-03T14:29:32.000Z</time>
      </trkpt>
      <trkpt lat="44.13746" lon="3.19946">
        <ele>768.79998779297</ele>
        <time>2020-10-03T14:29:34.000Z</time>
      </trkpt>
      <trkpt lat="44.13746" lon="3.19946">
        <ele>768.79998779297</ele>
        <time>2020-10-03T14:29:36.000Z</time>
      </trkpt>
      <trkpt lat="44.13746" lon="3.19947">
        <ele>768.79998779297</ele>
        <time>2020-10-03T14:29:38.000Z</time>
      </trkpt>
      <trkpt lat="44.13746" lon="3.19947">
        <ele>768.79998779297</ele>
        <time>2020-10-03T14:29:40.000Z</time>
      </trkpt>
      <trkpt lat="44.13746" lon="3.19948">
        <ele>769</ele>
        <time>2020-10-03T14:29:42.000Z</time>
      </trkpt>
      <trkpt lat="44.13745" lon="3.19948">
        <ele>769</ele>
        <time>2020-10-03T14:29:43.000Z</time>
      </trkpt>
      <trkpt lat="44.13745" lon="3.19948">
        <ele>769.20001220703</ele>
        <time>2020-10-03T14:29:44.000Z</time>
      </trkpt>
      <trkpt lat="44.13745" lon="3.19948">
        <ele>769.40002441406</ele>
        <time>2020-10-03T14:29:46.000Z</time>
      </trkpt>
      <trkpt lat="44.13745" lon="3.19949">
        <ele>769.59997558594</ele>
        <time>2020-10-03T14:29:48.000Z</time>
      </trkpt>
      <trkpt lat="44.13744" lon="3.1995">
        <ele>769.79998779297</ele>
        <time>2020-10-03T14:29:50.000Z</time>
      </trkpt>
      <trkpt lat="44.13744" lon="3.1995">
        <ele>769.79998779297</ele>
        <time>2020-10-03T14:29:52.000Z</time>
      </trkpt>
      <trkpt lat="44.13744" lon="3.1995">
        <ele>769.79998779297</ele>
        <time>2020-10-03T14:29:54.000Z</time>
      </trkpt>
      <trkpt lat="44.13744" lon="3.19951">
        <ele>769.79998779297</ele>
        <time>2020-10-03T14:29:56.000Z</time>
      </trkpt>
      <trkpt lat="44.13744" lon="3.19952">
        <ele>769.79998779297</ele>
        <time>2020-10-03T14:29:58.000Z</time>
      </trkpt>
      <trkpt lat="44.13744" lon="3.19952">
        <ele>769.59997558594</ele>
        <time>2020-10-03T14:30:00.000Z</time>
      </trkpt>
      <trkpt lat="44.13744" lon="3.19952">
        <ele>769.59997558594</ele>
        <time>2020-10-03T14:30:02.000Z</time>
      </trkpt>
      <trkpt lat="44.13743" lon="3.19953">
        <ele>769.59997558594</ele>
        <time>2020-10-03T14:30:04.000Z</time>
      </trkpt>
      <trkpt lat="44.13743" lon="3.19953">
        <ele>769.59997558594</ele>
        <time>2020-10-03T14:30:06.000Z</time>
      </trkpt>
      <trkpt lat="44.13743" lon="3.19953">
        <ele>769.40002441406</ele>
        <time>2020-10-03T14:30:08.000Z</time>
      </trkpt>
      <trkpt lat="44.13742" lon="3.19953">
        <ele>769.20001220703</ele>
        <time>2020-10-03T14:30:10.000Z</time>
      </trkpt>
      <trkpt lat="44.13737" lon="3.19954">
        <ele>769</ele>
        <time>2020-10-03T14:30:12.000Z</time>
      </trkpt>
      <trkpt lat="44.13735" lon="3.19955">
        <ele>769</ele>
        <time>2020-10-03T14:30:13.000Z</time>
      </trkpt>
      <trkpt lat="44.13732" lon="3.19958">
        <ele>768.79998779297</ele>
        <time>2020-10-03T14:30:14.000Z</time>
      </trkpt>
      <trkpt lat="44.13725" lon="3.19962">
        <ele>768.59997558594</ele>
        <time>2020-10-03T14:30:16.000Z</time>
      </trkpt>
      <trkpt lat="44.13722" lon="3.19964">
        <ele>768.40002441406</ele>
        <time>2020-10-03T14:30:17.000Z</time>
      </trkpt>
      <trkpt lat="44.13719" lon="3.19965">
        <ele>768.20001220703</ele>
        <time>2020-10-03T14:30:18.000Z</time>
      </trkpt>
      <trkpt lat="44.13713" lon="3.19968">
        <ele>767.40002441406</ele>
        <time>2020-10-03T14:30:20.000Z</time>
      </trkpt>
      <trkpt lat="44.13706" lon="3.19972">
        <ele>765.40002441406</ele>
        <time>2020-10-03T14:30:22.000Z</time>
      </trkpt>
      <trkpt lat="44.13703" lon="3.19974">
        <ele>764.40002441406</ele>
        <time>2020-10-03T14:30:23.000Z</time>
      </trkpt>
      <trkpt lat="44.13701" lon="3.19975">
        <ele>763.59997558594</ele>
        <time>2020-10-03T14:30:24.000Z</time>
      </trkpt>
      <trkpt lat="44.13698" lon="3.19977">
        <ele>763.20001220703</ele>
        <time>2020-10-03T14:30:25.000Z</time>
      </trkpt>
      <trkpt lat="44.13696" lon="3.19979">
        <ele>762.59997558594</ele>
        <time>2020-10-03T14:30:26.000Z</time>
      </trkpt>
      <trkpt lat="44.13693" lon="3.1998">
        <ele>762</ele>
        <time>2020-10-03T14:30:27.000Z</time>
      </trkpt>
      <trkpt lat="44.13691" lon="3.19982">
        <ele>761.59997558594</ele>
        <time>2020-10-03T14:30:28.000Z</time>
      </trkpt>
      <trkpt lat="44.13686" lon="3.19986">
        <ele>760.59997558594</ele>
        <time>2020-10-03T14:30:30.000Z</time>
      </trkpt>
      <trkpt lat="44.13684" lon="3.19988">
        <ele>760.20001220703</ele>
        <time>2020-10-03T14:30:31.000Z</time>
      </trkpt>
      <trkpt lat="44.13682" lon="3.19988">
        <ele>759.59997558594</ele>
        <time>2020-10-03T14:30:32.000Z</time>
      </trkpt>
      <trkpt lat="44.1368" lon="3.19988">
        <ele>759</ele>
        <time>2020-10-03T14:30:33.000Z</time>
      </trkpt>
      <trkpt lat="44.13677" lon="3.19987">
        <ele>758.20001220703</ele>
        <time>2020-10-03T14:30:34.000Z</time>
      </trkpt>
      <trkpt lat="44.13673" lon="3.19986">
        <ele>757.40002441406</ele>
        <time>2020-10-03T14:30:35.000Z</time>
      </trkpt>
      <trkpt lat="44.13669" lon="3.19984">
        <ele>756.40002441406</ele>
        <time>2020-10-03T14:30:36.000Z</time>
      </trkpt>
      <trkpt lat="44.13665" lon="3.19984">
        <ele>755.20001220703</ele>
        <time>2020-10-03T14:30:37.000Z</time>
      </trkpt>
      <trkpt lat="44.13661" lon="3.19985">
        <ele>754</ele>
        <time>2020-10-03T14:30:38.000Z</time>
      </trkpt>
      <trkpt lat="44.13658" lon="3.19985">
        <ele>753</ele>
        <time>2020-10-03T14:30:39.000Z</time>
      </trkpt>
      <trkpt lat="44.13655" lon="3.19986">
        <ele>751.79998779297</ele>
        <time>2020-10-03T14:30:40.000Z</time>
      </trkpt>
      <trkpt lat="44.13651" lon="3.19988">
        <ele>750.59997558594</ele>
        <time>2020-10-03T14:30:42.000Z</time>
      </trkpt>
      <trkpt lat="44.13646" lon="3.19987">
        <ele>750</ele>
        <time>2020-10-03T14:30:44.000Z</time>
      </trkpt>
      <trkpt lat="44.13639" lon="3.19984">
        <ele>749.40002441406</ele>
        <time>2020-10-03T14:30:46.000Z</time>
      </trkpt>
      <trkpt lat="44.13634" lon="3.19981">
        <ele>749.20001220703</ele>
        <time>2020-10-03T14:30:47.000Z</time>
      </trkpt>
      <trkpt lat="44.13629" lon="3.1998">
        <ele>749</ele>
        <time>2020-10-03T14:30:48.000Z</time>
      </trkpt>
      <trkpt lat="44.13622" lon="3.19979">
        <ele>748.40002441406</ele>
        <time>2020-10-03T14:30:50.000Z</time>
      </trkpt>
      <trkpt lat="44.13618" lon="3.19979">
        <ele>748.20001220703</ele>
        <time>2020-10-03T14:30:51.000Z</time>
      </trkpt>
      <trkpt lat="44.13614" lon="3.19977">
        <ele>748</ele>
        <time>2020-10-03T14:30:52.000Z</time>
      </trkpt>
      <trkpt lat="44.13608" lon="3.19972">
        <ele>747.40002441406</ele>
        <time>2020-10-03T14:30:54.000Z</time>
      </trkpt>
      <trkpt lat="44.13605" lon="3.19971">
        <ele>747.20001220703</ele>
        <time>2020-10-03T14:30:55.000Z</time>
      </trkpt>
      <trkpt lat="44.13602" lon="3.19969">
        <ele>747</ele>
        <time>2020-10-03T14:30:56.000Z</time>
      </trkpt>
      <trkpt lat="44.13596" lon="3.19965">
        <ele>746.79998779297</ele>
        <time>2020-10-03T14:30:58.000Z</time>
      </trkpt>
      <trkpt lat="44.1359" lon="3.1996">
        <ele>746.40002441406</ele>
        <time>2020-10-03T14:31:00.000Z</time>
      </trkpt>
      <trkpt lat="44.13584" lon="3.19958">
        <ele>745.40002441406</ele>
        <time>2020-10-03T14:31:01.000Z</time>
      </trkpt>
      <trkpt lat="44.13579" lon="3.19958">
        <ele>744.79998779297</ele>
        <time>2020-10-03T14:31:02.000Z</time>
      </trkpt>
      <trkpt lat="44.1357" lon="3.19958">
        <ele>744</ele>
        <time>2020-10-03T14:31:04.000Z</time>
      </trkpt>
      <trkpt lat="44.13562" lon="3.19959">
        <ele>742.79998779297</ele>
        <time>2020-10-03T14:31:06.000Z</time>
      </trkpt>
      <trkpt lat="44.13555" lon="3.19957">
        <ele>741.59997558594</ele>
        <time>2020-10-03T14:31:08.000Z</time>
      </trkpt>
      <trkpt lat="44.13552" lon="3.19956">
        <ele>741.20001220703</ele>
        <time>2020-10-03T14:31:09.000Z</time>
      </trkpt>
      <trkpt lat="44.13548" lon="3.19956">
        <ele>741.20001220703</ele>
        <time>2020-10-03T14:31:10.000Z</time>
      </trkpt>
      <trkpt lat="44.1354" lon="3.19954">
        <ele>741</ele>
        <time>2020-10-03T14:31:12.000Z</time>
      </trkpt>
      <trkpt lat="44.13532" lon="3.19951">
        <ele>740.59997558594</ele>
        <time>2020-10-03T14:31:14.000Z</time>
      </trkpt>
      <trkpt lat="44.13529" lon="3.1995">
        <ele>740.40002441406</ele>
        <time>2020-10-03T14:31:15.000Z</time>
      </trkpt>
      <trkpt lat="44.13525" lon="3.1995">
        <ele>740</ele>
        <time>2020-10-03T14:31:16.000Z</time>
      </trkpt>
      <trkpt lat="44.13518" lon="3.19948">
        <ele>738.40002441406</ele>
        <time>2020-10-03T14:31:18.000Z</time>
      </trkpt>
      <trkpt lat="44.1351" lon="3.19945">
        <ele>737.59997558594</ele>
        <time>2020-10-03T14:31:20.000Z</time>
      </trkpt>
      <trkpt lat="44.13502" lon="3.19942">
        <ele>737.40002441406</ele>
        <time>2020-10-03T14:31:22.000Z</time>
      </trkpt>
      <trkpt lat="44.13494" lon="3.19939">
        <ele>737.20001220703</ele>
        <time>2020-10-03T14:31:24.000Z</time>
      </trkpt>
      <trkpt lat="44.13487" lon="3.19935">
        <ele>736.79998779297</ele>
        <time>2020-10-03T14:31:26.000Z</time>
      </trkpt>
      <trkpt lat="44.13478" lon="3.19929">
        <ele>736.20001220703</ele>
        <time>2020-10-03T14:31:28.000Z</time>
      </trkpt>
      <trkpt lat="44.13474" lon="3.19925">
        <ele>736</ele>
        <time>2020-10-03T14:31:29.000Z</time>
      </trkpt>
      <trkpt lat="44.13471" lon="3.1992">
        <ele>735.79998779297</ele>
        <time>2020-10-03T14:31:30.000Z</time>
      </trkpt>
      <trkpt lat="44.13469" lon="3.19916">
        <ele>735.79998779297</ele>
        <time>2020-10-03T14:31:31.000Z</time>
      </trkpt>
      <trkpt lat="44.13468" lon="3.19913">
        <ele>735.79998779297</ele>
        <time>2020-10-03T14:31:32.000Z</time>
      </trkpt>
      <trkpt lat="44.13466" lon="3.19908">
        <ele>735.59997558594</ele>
        <time>2020-10-03T14:31:34.000Z</time>
      </trkpt>
      <trkpt lat="44.13461" lon="3.19902">
        <ele>735.59997558594</ele>
        <time>2020-10-03T14:31:36.000Z</time>
      </trkpt>
      <trkpt lat="44.13458" lon="3.19901">
        <ele>735.59997558594</ele>
        <time>2020-10-03T14:31:38.000Z</time>
      </trkpt>
      <trkpt lat="44.13455" lon="3.19899">
        <ele>735.79998779297</ele>
        <time>2020-10-03T14:31:40.000Z</time>
      </trkpt>
      <trkpt lat="44.13454" lon="3.19898">
        <ele>736.20001220703</ele>
        <time>2020-10-03T14:31:41.000Z</time>
      </trkpt>
      <trkpt lat="44.13453" lon="3.19897">
        <ele>736.40002441406</ele>
        <time>2020-10-03T14:31:42.000Z</time>
      </trkpt>
      <trkpt lat="44.13451" lon="3.19895">
        <ele>737</ele>
        <time>2020-10-03T14:31:44.000Z</time>
      </trkpt>
      <trkpt lat="44.13449" lon="3.19894">
        <ele>737.20001220703</ele>
        <time>2020-10-03T14:31:45.000Z</time>
      </trkpt>
      <trkpt lat="44.13448" lon="3.19893">
        <ele>737.59997558594</ele>
        <time>2020-10-03T14:31:46.000Z</time>
      </trkpt>
      <trkpt lat="44.13446" lon="3.19891">
        <ele>738.40002441406</ele>
        <time>2020-10-03T14:31:48.000Z</time>
      </trkpt>
      <trkpt lat="44.13444" lon="3.19891">
        <ele>739</ele>
        <time>2020-10-03T14:31:50.000Z</time>
      </trkpt>
      <trkpt lat="44.13443" lon="3.1989">
        <ele>739.20001220703</ele>
        <time>2020-10-03T14:31:51.000Z</time>
      </trkpt>
      <trkpt lat="44.13442" lon="3.1989">
        <ele>739.40002441406</ele>
        <time>2020-10-03T14:31:52.000Z</time>
      </trkpt>
      <trkpt lat="44.1344" lon="3.1989">
        <ele>739.59997558594</ele>
        <time>2020-10-03T14:31:54.000Z</time>
      </trkpt>
      <trkpt lat="44.13436" lon="3.19888">
        <ele>739.79998779297</ele>
        <time>2020-10-03T14:31:56.000Z</time>
      </trkpt>
      <trkpt lat="44.13432" lon="3.19887">
        <ele>740.20001220703</ele>
        <time>2020-10-03T14:31:58.000Z</time>
      </trkpt>
      <trkpt lat="44.1343" lon="3.19887">
        <ele>740.59997558594</ele>
        <time>2020-10-03T14:31:59.000Z</time>
      </trkpt>
      <trkpt lat="44.13428" lon="3.19886">
        <ele>741</ele>
        <time>2020-10-03T14:32:00.000Z</time>
      </trkpt>
      <trkpt lat="44.13426" lon="3.19885">
        <ele>741.20001220703</ele>
        <time>2020-10-03T14:32:01.000Z</time>
      </trkpt>
      <trkpt lat="44.13424" lon="3.19884">
        <ele>741.40002441406</ele>
        <time>2020-10-03T14:32:02.000Z</time>
      </trkpt>
      <trkpt lat="44.1342" lon="3.19882">
        <ele>741.59997558594</ele>
        <time>2020-10-03T14:32:04.000Z</time>
      </trkpt>
      <trkpt lat="44.13419" lon="3.19881">
        <ele>741.79998779297</ele>
        <time>2020-10-03T14:32:05.000Z</time>
      </trkpt>
      <trkpt lat="44.13417" lon="3.19881">
        <ele>742.40002441406</ele>
        <time>2020-10-03T14:32:06.000Z</time>
      </trkpt>
      <trkpt lat="44.13416" lon="3.19881">
        <ele>743</ele>
        <time>2020-10-03T14:32:07.000Z</time>
      </trkpt>
      <trkpt lat="44.13414" lon="3.19881">
        <ele>743.59997558594</ele>
        <time>2020-10-03T14:32:08.000Z</time>
      </trkpt>
      <trkpt lat="44.13412" lon="3.1988">
        <ele>744</ele>
        <time>2020-10-03T14:32:10.000Z</time>
      </trkpt>
      <trkpt lat="44.13411" lon="3.1988">
        <ele>744.20001220703</ele>
        <time>2020-10-03T14:32:11.000Z</time>
      </trkpt>
      <trkpt lat="44.1341" lon="3.19879">
        <ele>745.20001220703</ele>
        <time>2020-10-03T14:32:12.000Z</time>
      </trkpt>
      <trkpt lat="44.13408" lon="3.19878">
        <ele>745.59997558594</ele>
        <time>2020-10-03T14:32:13.000Z</time>
      </trkpt>
      <trkpt lat="44.13407" lon="3.19878">
        <ele>745.79998779297</ele>
        <time>2020-10-03T14:32:14.000Z</time>
      </trkpt>
      <trkpt lat="44.13404" lon="3.19876">
        <ele>746</ele>
        <time>2020-10-03T14:32:16.000Z</time>
      </trkpt>
      <trkpt lat="44.13402" lon="3.19873">
        <ele>746.20001220703</ele>
        <time>2020-10-03T14:32:18.000Z</time>
      </trkpt>
      <trkpt lat="44.13402" lon="3.19871">
        <ele>746.40002441406</ele>
        <time>2020-10-03T14:32:20.000Z</time>
      </trkpt>
      <trkpt lat="44.13402" lon="3.19868">
        <ele>746.59997558594</ele>
        <time>2020-10-03T14:32:22.000Z</time>
      </trkpt>
      <trkpt lat="44.13402" lon="3.19868">
        <ele>746.59997558594</ele>
        <time>2020-10-03T14:32:24.000Z</time>
      </trkpt>
      <trkpt lat="44.13402" lon="3.19867">
        <ele>747</ele>
        <time>2020-10-03T14:32:26.000Z</time>
      </trkpt>
      <trkpt lat="44.13402" lon="3.19866">
        <ele>747.40002441406</ele>
        <time>2020-10-03T14:32:27.000Z</time>
      </trkpt>
      <trkpt lat="44.13401" lon="3.19866">
        <ele>747.59997558594</ele>
        <time>2020-10-03T14:32:28.000Z</time>
      </trkpt>
      <trkpt lat="44.13401" lon="3.19865">
        <ele>748</ele>
        <time>2020-10-03T14:32:30.000Z</time>
      </trkpt>
      <trkpt lat="44.134" lon="3.19865">
        <ele>748</ele>
        <time>2020-10-03T14:32:32.000Z</time>
      </trkpt>
      <trkpt lat="44.13399" lon="3.19864">
        <ele>748</ele>
        <time>2020-10-03T14:32:34.000Z</time>
      </trkpt>
      <trkpt lat="44.13399" lon="3.19865">
        <ele>748</ele>
        <time>2020-10-03T14:32:35.000Z</time>
      </trkpt>
      <trkpt lat="44.13398" lon="3.19865">
        <ele>748</ele>
        <time>2020-10-03T14:32:36.000Z</time>
      </trkpt>
      <trkpt lat="44.13398" lon="3.19866">
        <ele>748.20001220703</ele>
        <time>2020-10-03T14:32:38.000Z</time>
      </trkpt>
      <trkpt lat="44.13398" lon="3.19867">
        <ele>748.20001220703</ele>
        <time>2020-10-03T14:32:40.000Z</time>
      </trkpt>
      <trkpt lat="44.13398" lon="3.19866">
        <ele>748.40002441406</ele>
        <time>2020-10-03T14:32:42.000Z</time>
      </trkpt>
      <trkpt lat="44.13397" lon="3.19866">
        <ele>748.40002441406</ele>
        <time>2020-10-03T14:32:43.000Z</time>
      </trkpt>
      <trkpt lat="44.13397" lon="3.19866">
        <ele>748.40002441406</ele>
        <time>2020-10-03T14:32:44.000Z</time>
      </trkpt>
      <trkpt lat="44.13396" lon="3.19865">
        <ele>748.40002441406</ele>
        <time>2020-10-03T14:32:46.000Z</time>
      </trkpt>
      <trkpt lat="44.13393" lon="3.19864">
        <ele>748.40002441406</ele>
        <time>2020-10-03T14:32:48.000Z</time>
      </trkpt>
      <trkpt lat="44.13392" lon="3.19864">
        <ele>748.59997558594</ele>
        <time>2020-10-03T14:32:49.000Z</time>
      </trkpt>
      <trkpt lat="44.13391" lon="3.19863">
        <ele>748.59997558594</ele>
        <time>2020-10-03T14:32:50.000Z</time>
      </trkpt>
      <trkpt lat="44.13391" lon="3.19862">
        <ele>748.59997558594</ele>
        <time>2020-10-03T14:32:52.000Z</time>
      </trkpt>
      <trkpt lat="44.13392" lon="3.1986">
        <ele>748.79998779297</ele>
        <time>2020-10-03T14:32:54.000Z</time>
      </trkpt>
      <trkpt lat="44.13394" lon="3.19859">
        <ele>748.79998779297</ele>
        <time>2020-10-03T14:32:56.000Z</time>
      </trkpt>
      <trkpt lat="44.13395" lon="3.19859">
        <ele>748.79998779297</ele>
        <time>2020-10-03T14:32:57.000Z</time>
      </trkpt>
      <trkpt lat="44.13396" lon="3.19859">
        <ele>748.79998779297</ele>
        <time>2020-10-03T14:32:58.000Z</time>
      </trkpt>
      <trkpt lat="44.13398" lon="3.19857">
        <ele>748.79998779297</ele>
        <time>2020-10-03T14:33:00.000Z</time>
      </trkpt>
      <trkpt lat="44.13399" lon="3.19856">
        <ele>748.79998779297</ele>
        <time>2020-10-03T14:33:01.000Z</time>
      </trkpt>
      <trkpt lat="44.13399" lon="3.19856">
        <ele>748.79998779297</ele>
        <time>2020-10-03T14:33:02.000Z</time>
      </trkpt>
      <trkpt lat="44.134" lon="3.19853">
        <ele>749</ele>
        <time>2020-10-03T14:33:04.000Z</time>
      </trkpt>
      <trkpt lat="44.13401" lon="3.19851">
        <ele>749.20001220703</ele>
        <time>2020-10-03T14:33:06.000Z</time>
      </trkpt>
      <trkpt lat="44.13402" lon="3.1985">
        <ele>749.20001220703</ele>
        <time>2020-10-03T14:33:07.000Z</time>
      </trkpt>
      <trkpt lat="44.13402" lon="3.19849">
        <ele>749.20001220703</ele>
        <time>2020-10-03T14:33:08.000Z</time>
      </trkpt>
      <trkpt lat="44.13403" lon="3.19848">
        <ele>749.20001220703</ele>
        <time>2020-10-03T14:33:10.000Z</time>
      </trkpt>
      <trkpt lat="44.13403" lon="3.19848">
        <ele>749.20001220703</ele>
        <time>2020-10-03T14:33:12.000Z</time>
      </trkpt>
      <trkpt lat="44.13404" lon="3.19848">
        <ele>749.40002441406</ele>
        <time>2020-10-03T14:33:14.000Z</time>
      </trkpt>
      <trkpt lat="44.13404" lon="3.19848">
        <ele>749.40002441406</ele>
        <time>2020-10-03T14:33:15.000Z</time>
      </trkpt>
      <trkpt lat="44.13404" lon="3.19847">
        <ele>749.40002441406</ele>
        <time>2020-10-03T14:33:16.000Z</time>
      </trkpt>
      <trkpt lat="44.13404" lon="3.19847">
        <ele>749.40002441406</ele>
        <time>2020-10-03T14:33:18.000Z</time>
      </trkpt>
      <trkpt lat="44.13404" lon="3.19846">
        <ele>749.40002441406</ele>
        <time>2020-10-03T14:33:20.000Z</time>
      </trkpt>
      <trkpt lat="44.13403" lon="3.19846">
        <ele>749.59997558594</ele>
        <time>2020-10-03T14:33:22.000Z</time>
      </trkpt>
      <trkpt lat="44.13403" lon="3.19846">
        <ele>749.79998779297</ele>
        <time>2020-10-03T14:33:24.000Z</time>
      </trkpt>
      <trkpt lat="44.13403" lon="3.19846">
        <ele>749.79998779297</ele>
        <time>2020-10-03T14:33:26.000Z</time>
      </trkpt>
      <trkpt lat="44.13403" lon="3.19846">
        <ele>749.79998779297</ele>
        <time>2020-10-03T14:33:28.000Z</time>
      </trkpt>
      <trkpt lat="44.13403" lon="3.19845">
        <ele>749.79998779297</ele>
        <time>2020-10-03T14:33:30.000Z</time>
      </trkpt>
      <trkpt lat="44.13403" lon="3.19844">
        <ele>749.79998779297</ele>
        <time>2020-10-03T14:33:32.000Z</time>
      </trkpt>
      <trkpt lat="44.13403" lon="3.19843">
        <ele>749.79998779297</ele>
        <time>2020-10-03T14:33:34.000Z</time>
      </trkpt>
      <trkpt lat="44.13403" lon="3.19844">
        <ele>749.79998779297</ele>
        <time>2020-10-03T14:33:36.000Z</time>
      </trkpt>
      <trkpt lat="44.13403" lon="3.19844">
        <ele>749.59997558594</ele>
        <time>2020-10-03T14:33:38.000Z</time>
      </trkpt>
      <trkpt lat="44.13403" lon="3.19844">
        <ele>749.59997558594</ele>
        <time>2020-10-03T14:33:39.000Z</time>
      </trkpt>
      <trkpt lat="44.13403" lon="3.19844">
        <ele>749.59997558594</ele>
        <time>2020-10-03T14:33:40.000Z</time>
      </trkpt>
      <trkpt lat="44.13403" lon="3.19844">
        <ele>749.59997558594</ele>
        <time>2020-10-03T14:33:42.000Z</time>
      </trkpt>
      <trkpt lat="44.13403" lon="3.19843">
        <ele>749.59997558594</ele>
        <time>2020-10-03T14:33:44.000Z</time>
      </trkpt>
      <trkpt lat="44.13402" lon="3.19842">
        <ele>749.59997558594</ele>
        <time>2020-10-03T14:33:46.000Z</time>
      </trkpt>
      <trkpt lat="44.13402" lon="3.19842">
        <ele>749.79998779297</ele>
        <time>2020-10-03T14:33:48.000Z</time>
      </trkpt>
      <trkpt lat="44.13402" lon="3.19842">
        <ele>750</ele>
        <time>2020-10-03T14:33:50.000Z</time>
      </trkpt>
      <trkpt lat="44.13402" lon="3.19842">
        <ele>750.20001220703</ele>
        <time>2020-10-03T14:33:52.000Z</time>
      </trkpt>
      <trkpt lat="44.13402" lon="3.19842">
        <ele>750.20001220703</ele>
        <time>2020-10-03T14:33:53.000Z</time>
      </trkpt>
      <trkpt lat="44.13403" lon="3.19843">
        <ele>750.20001220703</ele>
        <time>2020-10-03T14:33:54.000Z</time>
      </trkpt>
      <trkpt lat="44.13403" lon="3.19842">
        <ele>750.20001220703</ele>
        <time>2020-10-03T14:33:56.000Z</time>
      </trkpt>
      <trkpt lat="44.13403" lon="3.19843">
        <ele>750.20001220703</ele>
        <time>2020-10-03T14:33:58.000Z</time>
      </trkpt>
      <trkpt lat="44.13404" lon="3.19846">
        <ele>750.20001220703</ele>
        <time>2020-10-03T14:34:00.000Z</time>
      </trkpt>
      <trkpt lat="44.13403" lon="3.19846">
        <ele>750</ele>
        <time>2020-10-03T14:34:02.000Z</time>
      </trkpt>
      <trkpt lat="44.13403" lon="3.19845">
        <ele>749.79998779297</ele>
        <time>2020-10-03T14:34:04.000Z</time>
      </trkpt>
      <trkpt lat="44.13403" lon="3.19845">
        <ele>749.59997558594</ele>
        <time>2020-10-03T14:34:06.000Z</time>
      </trkpt>
      <trkpt lat="44.13404" lon="3.19845">
        <ele>749.59997558594</ele>
        <time>2020-10-03T14:34:08.000Z</time>
      </trkpt>
      <trkpt lat="44.13404" lon="3.19845">
        <ele>749.59997558594</ele>
        <time>2020-10-03T14:34:09.000Z</time>
      </trkpt>
      <trkpt lat="44.13404" lon="3.19846">
        <ele>749.59997558594</ele>
        <time>2020-10-03T14:34:10.000Z</time>
      </trkpt>
      <trkpt lat="44.13404" lon="3.19846">
        <ele>749.59997558594</ele>
        <time>2020-10-03T14:34:12.000Z</time>
      </trkpt>
      <trkpt lat="44.13404" lon="3.19846">
        <ele>749.40002441406</ele>
        <time>2020-10-03T14:34:14.000Z</time>
      </trkpt>
      <trkpt lat="44.13404" lon="3.19847">
        <ele>749.40002441406</ele>
        <time>2020-10-03T14:34:16.000Z</time>
      </trkpt>
      <trkpt lat="44.13404" lon="3.19847">
        <ele>749.59997558594</ele>
        <time>2020-10-03T14:34:18.000Z</time>
      </trkpt>
      <trkpt lat="44.13404" lon="3.19848">
        <ele>749.59997558594</ele>
        <time>2020-10-03T14:34:20.000Z</time>
      </trkpt>
      <trkpt lat="44.13404" lon="3.19848">
        <ele>749.59997558594</ele>
        <time>2020-10-03T14:34:22.000Z</time>
      </trkpt>
      <trkpt lat="44.13404" lon="3.19849">
        <ele>749.79998779297</ele>
        <time>2020-10-03T14:34:24.000Z</time>
      </trkpt>
      <trkpt lat="44.13403" lon="3.19848">
        <ele>749.79998779297</ele>
        <time>2020-10-03T14:34:26.000Z</time>
      </trkpt>
      <trkpt lat="44.13402" lon="3.19848">
        <ele>750</ele>
        <time>2020-10-03T14:34:28.000Z</time>
      </trkpt>
      <trkpt lat="44.13402" lon="3.19848">
        <ele>750.20001220703</ele>
        <time>2020-10-03T14:34:30.000Z</time>
      </trkpt>
      <trkpt lat="44.13402" lon="3.19848">
        <ele>750.20001220703</ele>
        <time>2020-10-03T14:34:32.000Z</time>
      </trkpt>
      <trkpt lat="44.13401" lon="3.19847">
        <ele>750.20001220703</ele>
        <time>2020-10-03T14:34:34.000Z</time>
      </trkpt>
      <trkpt lat="44.13401" lon="3.19847">
        <ele>750.20001220703</ele>
        <time>2020-10-03T14:34:36.000Z</time>
      </trkpt>
      <trkpt lat="44.13402" lon="3.19847">
        <ele>750</ele>
        <time>2020-10-03T14:34:38.000Z</time>
      </trkpt>
      <trkpt lat="44.13402" lon="3.19847">
        <ele>750</ele>
        <time>2020-10-03T14:34:40.000Z</time>
      </trkpt>
      <trkpt lat="44.13402" lon="3.19847">
        <ele>750</ele>
        <time>2020-10-03T14:34:42.000Z</time>
      </trkpt>
      <trkpt lat="44.13403" lon="3.19847">
        <ele>750</ele>
        <time>2020-10-03T14:34:44.000Z</time>
      </trkpt>
      <trkpt lat="44.13404" lon="3.19846">
        <ele>749.79998779297</ele>
        <time>2020-10-03T14:34:46.000Z</time>
      </trkpt>
      <trkpt lat="44.13405" lon="3.19844">
        <ele>749.59997558594</ele>
        <time>2020-10-03T14:34:48.000Z</time>
      </trkpt>
      <trkpt lat="44.13406" lon="3.19843">
        <ele>749.59997558594</ele>
        <time>2020-10-03T14:34:50.000Z</time>
      </trkpt>
      <trkpt lat="44.1341" lon="3.19841">
        <ele>749.59997558594</ele>
        <time>2020-10-03T14:34:52.000Z</time>
      </trkpt>
      <trkpt lat="44.13412" lon="3.1984">
        <ele>749.40002441406</ele>
        <time>2020-10-03T14:34:54.000Z</time>
      </trkpt>
      <trkpt lat="44.13413" lon="3.19838">
        <ele>749.40002441406</ele>
        <time>2020-10-03T14:34:55.000Z</time>
      </trkpt>
      <trkpt lat="44.13413" lon="3.19837">
        <ele>749.40002441406</ele>
        <time>2020-10-03T14:34:56.000Z</time>
      </trkpt>
      <trkpt lat="44.13412" lon="3.19835">
        <ele>749.20001220703</ele>
        <time>2020-10-03T14:34:58.000Z</time>
      </trkpt>
      <trkpt lat="44.13408" lon="3.1983">
        <ele>749</ele>
        <time>2020-10-03T14:35:00.000Z</time>
      </trkpt>
      <trkpt lat="44.13405" lon="3.19828">
        <ele>748.79998779297</ele>
        <time>2020-10-03T14:35:01.000Z</time>
      </trkpt>
      <trkpt lat="44.13403" lon="3.19826">
        <ele>748.20001220703</ele>
        <time>2020-10-03T14:35:02.000Z</time>
      </trkpt>
      <trkpt lat="44.13401" lon="3.19823">
        <ele>746.59997558594</ele>
        <time>2020-10-03T14:35:04.000Z</time>
      </trkpt>
      <trkpt lat="44.13399" lon="3.19821">
        <ele>744.79998779297</ele>
        <time>2020-10-03T14:35:06.000Z</time>
      </trkpt>
      <trkpt lat="44.13397" lon="3.19819">
        <ele>743</ele>
        <time>2020-10-03T14:35:08.000Z</time>
      </trkpt>
      <trkpt lat="44.13396" lon="3.19818">
        <ele>742</ele>
        <time>2020-10-03T14:35:09.000Z</time>
      </trkpt>
      <trkpt lat="44.13396" lon="3.19818">
        <ele>740.79998779297</ele>
        <time>2020-10-03T14:35:10.000Z</time>
      </trkpt>
      <trkpt lat="44.13395" lon="3.19818">
        <ele>739.79998779297</ele>
        <time>2020-10-03T14:35:11.000Z</time>
      </trkpt>
      <trkpt lat="44.13395" lon="3.19817">
        <ele>739</ele>
        <time>2020-10-03T14:35:12.000Z</time>
      </trkpt>
      <trkpt lat="44.13394" lon="3.19817">
        <ele>738.40002441406</ele>
        <time>2020-10-03T14:35:13.000Z</time>
      </trkpt>
      <trkpt lat="44.13394" lon="3.19816">
        <ele>738</ele>
        <time>2020-10-03T14:35:14.000Z</time>
      </trkpt>
      <trkpt lat="44.13393" lon="3.19816">
        <ele>737.20001220703</ele>
        <time>2020-10-03T14:35:16.000Z</time>
      </trkpt>
      <trkpt lat="44.13392" lon="3.19815">
        <ele>736.79998779297</ele>
        <time>2020-10-03T14:35:18.000Z</time>
      </trkpt>
      <trkpt lat="44.13392" lon="3.19815">
        <ele>736.79998779297</ele>
        <time>2020-10-03T14:35:20.000Z</time>
      </trkpt>
      <trkpt lat="44.13392" lon="3.19813">
        <ele>736.79998779297</ele>
        <time>2020-10-03T14:35:22.000Z</time>
      </trkpt>
      <trkpt lat="44.13391" lon="3.19813">
        <ele>736.40002441406</ele>
        <time>2020-10-03T14:35:24.000Z</time>
      </trkpt>
      <trkpt lat="44.13391" lon="3.19812">
        <ele>736.40002441406</ele>
        <time>2020-10-03T14:35:26.000Z</time>
      </trkpt>
      <trkpt lat="44.13391" lon="3.19811">
        <ele>736.40002441406</ele>
        <time>2020-10-03T14:35:27.000Z</time>
      </trkpt>
      <trkpt lat="44.13391" lon="3.1981">
        <ele>736.59997558594</ele>
        <time>2020-10-03T14:35:28.000Z</time>
      </trkpt>
      <trkpt lat="44.1339" lon="3.1981">
        <ele>736.59997558594</ele>
        <time>2020-10-03T14:35:30.000Z</time>
      </trkpt>
      <trkpt lat="44.13389" lon="3.1981">
        <ele>736.59997558594</ele>
        <time>2020-10-03T14:35:32.000Z</time>
      </trkpt>
      <trkpt lat="44.13387" lon="3.1981">
        <ele>736.59997558594</ele>
        <time>2020-10-03T14:35:34.000Z</time>
      </trkpt>
      <trkpt lat="44.13387" lon="3.19811">
        <ele>736.59997558594</ele>
        <time>2020-10-03T14:35:35.000Z</time>
      </trkpt>
      <trkpt lat="44.13386" lon="3.19811">
        <ele>736.59997558594</ele>
        <time>2020-10-03T14:35:36.000Z</time>
      </trkpt>
      <trkpt lat="44.13385" lon="3.19811">
        <ele>736.59997558594</ele>
        <time>2020-10-03T14:35:38.000Z</time>
      </trkpt>
      <trkpt lat="44.13384" lon="3.19811">
        <ele>736.40002441406</ele>
        <time>2020-10-03T14:35:40.000Z</time>
      </trkpt>
      <trkpt lat="44.13383" lon="3.19811">
        <ele>735.79998779297</ele>
        <time>2020-10-03T14:35:42.000Z</time>
      </trkpt>
      <trkpt lat="44.13382" lon="3.19811">
        <ele>734.59997558594</ele>
        <time>2020-10-03T14:35:44.000Z</time>
      </trkpt>
      <trkpt lat="44.13381" lon="3.19811">
        <ele>733.79998779297</ele>
        <time>2020-10-03T14:35:46.000Z</time>
      </trkpt>
      <trkpt lat="44.13381" lon="3.19811">
        <ele>733.59997558594</ele>
        <time>2020-10-03T14:35:47.000Z</time>
      </trkpt>
      <trkpt lat="44.13381" lon="3.1981">
        <ele>733.40002441406</ele>
        <time>2020-10-03T14:35:48.000Z</time>
      </trkpt>
      <trkpt lat="44.13381" lon="3.1981">
        <ele>732.79998779297</ele>
        <time>2020-10-03T14:35:50.000Z</time>
      </trkpt>
      <trkpt lat="44.13381" lon="3.1981">
        <ele>732.40002441406</ele>
        <time>2020-10-03T14:35:51.000Z</time>
      </trkpt>
      <trkpt lat="44.13381" lon="3.1981">
        <ele>732</ele>
        <time>2020-10-03T14:35:52.000Z</time>
      </trkpt>
      <trkpt lat="44.1338" lon="3.19811">
        <ele>731.40002441406</ele>
        <time>2020-10-03T14:35:53.000Z</time>
      </trkpt>
      <trkpt lat="44.1338" lon="3.19811">
        <ele>730.79998779297</ele>
        <time>2020-10-03T14:35:54.000Z</time>
      </trkpt>
      <trkpt lat="44.1338" lon="3.19812">
        <ele>730.20001220703</ele>
        <time>2020-10-03T14:35:55.000Z</time>
      </trkpt>
      <trkpt lat="44.13381" lon="3.19812">
        <ele>729.79998779297</ele>
        <time>2020-10-03T14:35:56.000Z</time>
      </trkpt>
      <trkpt lat="44.13381" lon="3.19812">
        <ele>729.79998779297</ele>
        <time>2020-10-03T14:35:57.000Z</time>
      </trkpt>
      <trkpt lat="44.13381" lon="3.19813">
        <ele>729.59997558594</ele>
        <time>2020-10-03T14:35:58.000Z</time>
      </trkpt>
      <trkpt lat="44.1338" lon="3.19813">
        <ele>729.20001220703</ele>
        <time>2020-10-03T14:36:00.000Z</time>
      </trkpt>
      <trkpt lat="44.13381" lon="3.19813">
        <ele>729.20001220703</ele>
        <time>2020-10-03T14:36:01.000Z</time>
      </trkpt>
      <trkpt lat="44.1338" lon="3.19812">
        <ele>729.20001220703</ele>
        <time>2020-10-03T14:36:02.000Z</time>
      </trkpt>
      <trkpt lat="44.1338" lon="3.19813">
        <ele>728.79998779297</ele>
        <time>2020-10-03T14:36:04.000Z</time>
      </trkpt>
      <trkpt lat="44.1338" lon="3.19812">
        <ele>728.59997558594</ele>
        <time>2020-10-03T14:36:06.000Z</time>
      </trkpt>
      <trkpt lat="44.1338" lon="3.19813">
        <ele>728.59997558594</ele>
        <time>2020-10-03T14:36:07.000Z</time>
      </trkpt>
      <trkpt lat="44.1338" lon="3.19813">
        <ele>728.20001220703</ele>
        <time>2020-10-03T14:36:08.000Z</time>
      </trkpt>
      <trkpt lat="44.13379" lon="3.19813">
        <ele>727.79998779297</ele>
        <time>2020-10-03T14:36:09.000Z</time>
      </trkpt>
      <trkpt lat="44.13379" lon="3.19812">
        <ele>727.40002441406</ele>
        <time>2020-10-03T14:36:10.000Z</time>
      </trkpt>
      <trkpt lat="44.13379" lon="3.19812">
        <ele>726.79998779297</ele>
        <time>2020-10-03T14:36:12.000Z</time>
      </trkpt>
      <trkpt lat="44.13379" lon="3.19813">
        <ele>726.79998779297</ele>
        <time>2020-10-03T14:36:13.000Z</time>
      </trkpt>
      <trkpt lat="44.13379" lon="3.19813">
        <ele>726.79998779297</ele>
        <time>2020-10-03T14:36:14.000Z</time>
      </trkpt>
      <trkpt lat="44.13378" lon="3.19814">
        <ele>726.59997558594</ele>
        <time>2020-10-03T14:36:16.000Z</time>
      </trkpt>
      <trkpt lat="44.13376" lon="3.19814">
        <ele>726.59997558594</ele>
        <time>2020-10-03T14:36:18.000Z</time>
      </trkpt>
      <trkpt lat="44.13376" lon="3.19817">
        <ele>726.59997558594</ele>
        <time>2020-10-03T14:36:19.000Z</time>
      </trkpt>
      <trkpt lat="44.13376" lon="3.19818">
        <ele>726.40002441406</ele>
        <time>2020-10-03T14:36:20.000Z</time>
      </trkpt>
      <trkpt lat="44.13375" lon="3.1982">
        <ele>726.40002441406</ele>
        <time>2020-10-03T14:36:22.000Z</time>
      </trkpt>
      <trkpt lat="44.13375" lon="3.19823">
        <ele>725.79998779297</ele>
        <time>2020-10-03T14:36:24.000Z</time>
      </trkpt>
      <trkpt lat="44.13376" lon="3.19824">
        <ele>725.40002441406</ele>
        <time>2020-10-03T14:36:25.000Z</time>
      </trkpt>
      <trkpt lat="44.13376" lon="3.19825">
        <ele>725</ele>
        <time>2020-10-03T14:36:26.000Z</time>
      </trkpt>
      <trkpt lat="44.13374" lon="3.19822">
        <ele>723.79998779297</ele>
        <time>2020-10-03T14:36:28.000Z</time>
      </trkpt>
      <trkpt lat="44.13373" lon="3.1982">
        <ele>722.20001220703</ele>
        <time>2020-10-03T14:36:30.000Z</time>
      </trkpt>
      <trkpt lat="44.13374" lon="3.1982">
        <ele>721</ele>
        <time>2020-10-03T14:36:32.000Z</time>
      </trkpt>
      <trkpt lat="44.13373" lon="3.19821">
        <ele>719.20001220703</ele>
        <time>2020-10-03T14:36:34.000Z</time>
      </trkpt>
      <trkpt lat="44.13371" lon="3.19821">
        <ele>718.20001220703</ele>
        <time>2020-10-03T14:36:35.000Z</time>
      </trkpt>
      <trkpt lat="44.1337" lon="3.1982">
        <ele>717.59997558594</ele>
        <time>2020-10-03T14:36:36.000Z</time>
      </trkpt>
      <trkpt lat="44.13369" lon="3.19819">
        <ele>717</ele>
        <time>2020-10-03T14:36:38.000Z</time>
      </trkpt>
      <trkpt lat="44.13367" lon="3.19819">
        <ele>716.79998779297</ele>
        <time>2020-10-03T14:36:39.000Z</time>
      </trkpt>
      <trkpt lat="44.13365" lon="3.19819">
        <ele>716.59997558594</ele>
        <time>2020-10-03T14:36:40.000Z</time>
      </trkpt>
      <trkpt lat="44.1336" lon="3.19816">
        <ele>716.40002441406</ele>
        <time>2020-10-03T14:36:42.000Z</time>
      </trkpt>
      <trkpt lat="44.13358" lon="3.19815">
        <ele>716.20001220703</ele>
        <time>2020-10-03T14:36:43.000Z</time>
      </trkpt>
      <trkpt lat="44.13357" lon="3.19814">
        <ele>715.40002441406</ele>
        <time>2020-10-03T14:36:44.000Z</time>
      </trkpt>
      <trkpt lat="44.13352" lon="3.19814">
        <ele>714</ele>
        <time>2020-10-03T14:36:46.000Z</time>
      </trkpt>
      <trkpt lat="44.1335" lon="3.19813">
        <ele>712.59997558594</ele>
        <time>2020-10-03T14:36:48.000Z</time>
      </trkpt>
      <trkpt lat="44.13348" lon="3.19812">
        <ele>711.40002441406</ele>
        <time>2020-10-03T14:36:49.000Z</time>
      </trkpt>
      <trkpt lat="44.13346" lon="3.19811">
        <ele>710.40002441406</ele>
        <time>2020-10-03T14:36:50.000Z</time>
      </trkpt>
      <trkpt lat="44.13345" lon="3.1981">
        <ele>709.79998779297</ele>
        <time>2020-10-03T14:36:51.000Z</time>
      </trkpt>
      <trkpt lat="44.13344" lon="3.1981">
        <ele>709.20001220703</ele>
        <time>2020-10-03T14:36:52.000Z</time>
      </trkpt>
      <trkpt lat="44.13343" lon="3.19809">
        <ele>708.79998779297</ele>
        <time>2020-10-03T14:36:53.000Z</time>
      </trkpt>
      <trkpt lat="44.13342" lon="3.19808">
        <ele>708.40002441406</ele>
        <time>2020-10-03T14:36:54.000Z</time>
      </trkpt>
      <trkpt lat="44.13341" lon="3.19808">
        <ele>708</ele>
        <time>2020-10-03T14:36:55.000Z</time>
      </trkpt>
      <trkpt lat="44.1334" lon="3.19808">
        <ele>707.40002441406</ele>
        <time>2020-10-03T14:36:56.000Z</time>
      </trkpt>
      <trkpt lat="44.1334" lon="3.19806">
        <ele>705.79998779297</ele>
        <time>2020-10-03T14:36:58.000Z</time>
      </trkpt>
      <trkpt lat="44.13338" lon="3.19803">
        <ele>705.40002441406</ele>
        <time>2020-10-03T14:37:00.000Z</time>
      </trkpt>
      <trkpt lat="44.13336" lon="3.19799">
        <ele>705</ele>
        <time>2020-10-03T14:37:02.000Z</time>
      </trkpt>
      <trkpt lat="44.13335" lon="3.19798">
        <ele>704.79998779297</ele>
        <time>2020-10-03T14:37:04.000Z</time>
      </trkpt>
      <trkpt lat="44.13334" lon="3.19798">
        <ele>704.59997558594</ele>
        <time>2020-10-03T14:37:05.000Z</time>
      </trkpt>
      <trkpt lat="44.13333" lon="3.19798">
        <ele>704.40002441406</ele>
        <time>2020-10-03T14:37:06.000Z</time>
      </trkpt>
      <trkpt lat="44.13332" lon="3.19799">
        <ele>704.20001220703</ele>
        <time>2020-10-03T14:37:07.000Z</time>
      </trkpt>
      <trkpt lat="44.1333" lon="3.19799">
        <ele>703.59997558594</ele>
        <time>2020-10-03T14:37:08.000Z</time>
      </trkpt>
      <trkpt lat="44.13328" lon="3.19798">
        <ele>702.59997558594</ele>
        <time>2020-10-03T14:37:09.000Z</time>
      </trkpt>
      <trkpt lat="44.13326" lon="3.19797">
        <ele>701.79998779297</ele>
        <time>2020-10-03T14:37:10.000Z</time>
      </trkpt>
      <trkpt lat="44.13324" lon="3.19796">
        <ele>701</ele>
        <time>2020-10-03T14:37:11.000Z</time>
      </trkpt>
      <trkpt lat="44.13323" lon="3.19795">
        <ele>700.59997558594</ele>
        <time>2020-10-03T14:37:12.000Z</time>
      </trkpt>
      <trkpt lat="44.13321" lon="3.19794">
        <ele>700</ele>
        <time>2020-10-03T14:37:14.000Z</time>
      </trkpt>
      <trkpt lat="44.1332" lon="3.19793">
        <ele>699</ele>
        <time>2020-10-03T14:37:16.000Z</time>
      </trkpt>
      <trkpt lat="44.13319" lon="3.19794">
        <ele>697.20001220703</ele>
        <time>2020-10-03T14:37:18.000Z</time>
      </trkpt>
      <trkpt lat="44.1332" lon="3.19793">
        <ele>695.79998779297</ele>
        <time>2020-10-03T14:37:20.000Z</time>
      </trkpt>
      <trkpt lat="44.1332" lon="3.19793">
        <ele>694.40002441406</ele>
        <time>2020-10-03T14:37:22.000Z</time>
      </trkpt>
      <trkpt lat="44.13319" lon="3.19792">
        <ele>693.40002441406</ele>
        <time>2020-10-03T14:37:24.000Z</time>
      </trkpt>
      <trkpt lat="44.13316" lon="3.19791">
        <ele>693.20001220703</ele>
        <time>2020-10-03T14:37:26.000Z</time>
      </trkpt>
      <trkpt lat="44.13316" lon="3.19791">
        <ele>693.20001220703</ele>
        <time>2020-10-03T14:37:27.000Z</time>
      </trkpt>
      <trkpt lat="44.13315" lon="3.19792">
        <ele>693.20001220703</ele>
        <time>2020-10-03T14:37:28.000Z</time>
      </trkpt>
      <trkpt lat="44.13315" lon="3.19791">
        <ele>693.20001220703</ele>
        <time>2020-10-03T14:37:30.000Z</time>
      </trkpt>
      <trkpt lat="44.13314" lon="3.19791">
        <ele>693</ele>
        <time>2020-10-03T14:37:32.000Z</time>
      </trkpt>
      <trkpt lat="44.13313" lon="3.1979">
        <ele>692.59997558594</ele>
        <time>2020-10-03T14:37:34.000Z</time>
      </trkpt>
      <trkpt lat="44.13312" lon="3.19789">
        <ele>692.59997558594</ele>
        <time>2020-10-03T14:37:36.000Z</time>
      </trkpt>
      <trkpt lat="44.13311" lon="3.19789">
        <ele>692.59997558594</ele>
        <time>2020-10-03T14:37:38.000Z</time>
      </trkpt>
      <trkpt lat="44.1331" lon="3.19789">
        <ele>692.59997558594</ele>
        <time>2020-10-03T14:37:40.000Z</time>
      </trkpt>
      <trkpt lat="44.13309" lon="3.19789">
        <ele>692.59997558594</ele>
        <time>2020-10-03T14:37:42.000Z</time>
      </trkpt>
      <trkpt lat="44.13309" lon="3.19789">
        <ele>692.59997558594</ele>
        <time>2020-10-03T14:37:44.000Z</time>
      </trkpt>
      <trkpt lat="44.13309" lon="3.19789">
        <ele>692.59997558594</ele>
        <time>2020-10-03T14:37:46.000Z</time>
      </trkpt>
      <trkpt lat="44.13309" lon="3.19788">
        <ele>692.59997558594</ele>
        <time>2020-10-03T14:37:48.000Z</time>
      </trkpt>
      <trkpt lat="44.13308" lon="3.19789">
        <ele>692.79998779297</ele>
        <time>2020-10-03T14:37:50.000Z</time>
      </trkpt>
      <trkpt lat="44.13308" lon="3.19788">
        <ele>692.79998779297</ele>
        <time>2020-10-03T14:37:51.000Z</time>
      </trkpt>
      <trkpt lat="44.13308" lon="3.19788">
        <ele>693</ele>
        <time>2020-10-03T14:37:52.000Z</time>
      </trkpt>
      <trkpt lat="44.13308" lon="3.19788">
        <ele>693.40002441406</ele>
        <time>2020-10-03T14:37:54.000Z</time>
      </trkpt>
      <trkpt lat="44.13308" lon="3.19788">
        <ele>693.59997558594</ele>
        <time>2020-10-03T14:37:56.000Z</time>
      </trkpt>
      <trkpt lat="44.13308" lon="3.19788">
        <ele>693.59997558594</ele>
        <time>2020-10-03T14:37:58.000Z</time>
      </trkpt>
      <trkpt lat="44.13308" lon="3.19787">
        <ele>693.59997558594</ele>
        <time>2020-10-03T14:38:00.000Z</time>
      </trkpt>
      <trkpt lat="44.13308" lon="3.19786">
        <ele>693.59997558594</ele>
        <time>2020-10-03T14:38:02.000Z</time>
      </trkpt>
      <trkpt lat="44.13308" lon="3.19785">
        <ele>693.59997558594</ele>
        <time>2020-10-03T14:38:04.000Z</time>
      </trkpt>
      <trkpt lat="44.13308" lon="3.19785">
        <ele>693.40002441406</ele>
        <time>2020-10-03T14:38:06.000Z</time>
      </trkpt>
      <trkpt lat="44.13309" lon="3.19785">
        <ele>693.20001220703</ele>
        <time>2020-10-03T14:38:08.000Z</time>
      </trkpt>
      <trkpt lat="44.13309" lon="3.19784">
        <ele>693.20001220703</ele>
        <time>2020-10-03T14:38:10.000Z</time>
      </trkpt>
      <trkpt lat="44.13311" lon="3.19783">
        <ele>693</ele>
        <time>2020-10-03T14:38:12.000Z</time>
      </trkpt>
      <trkpt lat="44.13311" lon="3.19784">
        <ele>693</ele>
        <time>2020-10-03T14:38:14.000Z</time>
      </trkpt>
      <trkpt lat="44.13311" lon="3.19784">
        <ele>693</ele>
        <time>2020-10-03T14:38:16.000Z</time>
      </trkpt>
      <trkpt lat="44.13311" lon="3.19784">
        <ele>693</ele>
        <time>2020-10-03T14:38:18.000Z</time>
      </trkpt>
      <trkpt lat="44.13311" lon="3.19784">
        <ele>693</ele>
        <time>2020-10-03T14:38:19.000Z</time>
      </trkpt>
      <trkpt lat="44.13311" lon="3.19784">
        <ele>693</ele>
        <time>2020-10-03T14:38:20.000Z</time>
      </trkpt>
      <trkpt lat="44.13311" lon="3.19784">
        <ele>693.20001220703</ele>
        <time>2020-10-03T14:38:22.000Z</time>
      </trkpt>
      <trkpt lat="44.13311" lon="3.19784">
        <ele>693.40002441406</ele>
        <time>2020-10-03T14:38:23.000Z</time>
      </trkpt>
      <trkpt lat="44.13311" lon="3.19784">
        <ele>693.40002441406</ele>
        <time>2020-10-03T14:38:24.000Z</time>
      </trkpt>
      <trkpt lat="44.13311" lon="3.19785">
        <ele>693.59997558594</ele>
        <time>2020-10-03T14:38:26.000Z</time>
      </trkpt>
      <trkpt lat="44.13311" lon="3.19785">
        <ele>693.79998779297</ele>
        <time>2020-10-03T14:38:28.000Z</time>
      </trkpt>
      <trkpt lat="44.1331" lon="3.19786">
        <ele>694</ele>
        <time>2020-10-03T14:38:29.000Z</time>
      </trkpt>
      <trkpt lat="44.1331" lon="3.19786">
        <ele>694</ele>
        <time>2020-10-03T14:38:30.000Z</time>
      </trkpt>
      <trkpt lat="44.1331" lon="3.19787">
        <ele>694</ele>
        <time>2020-10-03T14:38:32.000Z</time>
      </trkpt>
      <trkpt lat="44.1331" lon="3.19788">
        <ele>694</ele>
        <time>2020-10-03T14:38:34.000Z</time>
      </trkpt>
      <trkpt lat="44.13311" lon="3.19789">
        <ele>694</ele>
        <time>2020-10-03T14:38:36.000Z</time>
      </trkpt>
      <trkpt lat="44.13311" lon="3.19789">
        <ele>693.79998779297</ele>
        <time>2020-10-03T14:38:38.000Z</time>
      </trkpt>
      <trkpt lat="44.13311" lon="3.19788">
        <ele>693.79998779297</ele>
        <time>2020-10-03T14:38:40.000Z</time>
      </trkpt>
      <trkpt lat="44.13309" lon="3.19786">
        <ele>693.59997558594</ele>
        <time>2020-10-03T14:38:42.000Z</time>
      </trkpt>
      <trkpt lat="44.13307" lon="3.19783">
        <ele>693.59997558594</ele>
        <time>2020-10-03T14:38:44.000Z</time>
      </trkpt>
      <trkpt lat="44.13305" lon="3.19775">
        <ele>693.40002441406</ele>
        <time>2020-10-03T14:38:46.000Z</time>
      </trkpt>
      <trkpt lat="44.13303" lon="3.19766">
        <ele>693.20001220703</ele>
        <time>2020-10-03T14:38:48.000Z</time>
      </trkpt>
      <trkpt lat="44.13301" lon="3.19759">
        <ele>693</ele>
        <time>2020-10-03T14:38:50.000Z</time>
      </trkpt>
      <trkpt lat="44.13296" lon="3.19752">
        <ele>692.20001220703</ele>
        <time>2020-10-03T14:38:52.000Z</time>
      </trkpt>
      <trkpt lat="44.13296" lon="3.19748">
        <ele>691.59997558594</ele>
        <time>2020-10-03T14:38:53.000Z</time>
      </trkpt>
      <trkpt lat="44.13296" lon="3.19744">
        <ele>690.59997558594</ele>
        <time>2020-10-03T14:38:54.000Z</time>
      </trkpt>
      <trkpt lat="44.13296" lon="3.19742">
        <ele>689.40002441406</ele>
        <time>2020-10-03T14:38:55.000Z</time>
      </trkpt>
      <trkpt lat="44.13298" lon="3.1974">
        <ele>688.79998779297</ele>
        <time>2020-10-03T14:38:56.000Z</time>
      </trkpt>
      <trkpt lat="44.13299" lon="3.19737">
        <ele>688.20001220703</ele>
        <time>2020-10-03T14:38:57.000Z</time>
      </trkpt>
      <trkpt lat="44.13301" lon="3.19734">
        <ele>688</ele>
        <time>2020-10-03T14:38:58.000Z</time>
      </trkpt>
      <trkpt lat="44.13302" lon="3.1973">
        <ele>687.20001220703</ele>
        <time>2020-10-03T14:38:59.000Z</time>
      </trkpt>
      <trkpt lat="44.13302" lon="3.19726">
        <ele>686.79998779297</ele>
        <time>2020-10-03T14:39:00.000Z</time>
      </trkpt>
      <trkpt lat="44.13303" lon="3.1972">
        <ele>686.59997558594</ele>
        <time>2020-10-03T14:39:02.000Z</time>
      </trkpt>
      <trkpt lat="44.13303" lon="3.19713">
        <ele>686.40002441406</ele>
        <time>2020-10-03T14:39:04.000Z</time>
      </trkpt>
      <trkpt lat="44.13301" lon="3.19706">
        <ele>686.20001220703</ele>
        <time>2020-10-03T14:39:06.000Z</time>
      </trkpt>
      <trkpt lat="44.13301" lon="3.19702">
        <ele>686.20001220703</ele>
        <time>2020-10-03T14:39:07.000Z</time>
      </trkpt>
      <trkpt lat="44.133" lon="3.197">
        <ele>686</ele>
        <time>2020-10-03T14:39:08.000Z</time>
      </trkpt>
      <trkpt lat="44.13299" lon="3.19701">
        <ele>685.40002441406</ele>
        <time>2020-10-03T14:39:10.000Z</time>
      </trkpt>
      <trkpt lat="44.13297" lon="3.197">
        <ele>684.79998779297</ele>
        <time>2020-10-03T14:39:12.000Z</time>
      </trkpt>
      <trkpt lat="44.13294" lon="3.19698">
        <ele>684</ele>
        <time>2020-10-03T14:39:14.000Z</time>
      </trkpt>
      <trkpt lat="44.13293" lon="3.19698">
        <ele>683.59997558594</ele>
        <time>2020-10-03T14:39:15.000Z</time>
      </trkpt>
      <trkpt lat="44.13292" lon="3.19697">
        <ele>683.40002441406</ele>
        <time>2020-10-03T14:39:16.000Z</time>
      </trkpt>
      <trkpt lat="44.1329" lon="3.19694">
        <ele>683.20001220703</ele>
        <time>2020-10-03T14:39:18.000Z</time>
      </trkpt>
      <trkpt lat="44.13291" lon="3.1969">
        <ele>682.79998779297</ele>
        <time>2020-10-03T14:39:20.000Z</time>
      </trkpt>
      <trkpt lat="44.13291" lon="3.19688">
        <ele>682.59997558594</ele>
        <time>2020-10-03T14:39:21.000Z</time>
      </trkpt>
      <trkpt lat="44.13291" lon="3.19687">
        <ele>682.20001220703</ele>
        <time>2020-10-03T14:39:22.000Z</time>
      </trkpt>
      <trkpt lat="44.13289" lon="3.19684">
        <ele>681.79998779297</ele>
        <time>2020-10-03T14:39:24.000Z</time>
      </trkpt>
      <trkpt lat="44.13283" lon="3.19681">
        <ele>681.40002441406</ele>
        <time>2020-10-03T14:39:26.000Z</time>
      </trkpt>
      <trkpt lat="44.1328" lon="3.19679">
        <ele>680.79998779297</ele>
        <time>2020-10-03T14:39:27.000Z</time>
      </trkpt>
      <trkpt lat="44.13279" lon="3.19679">
        <ele>680</ele>
        <time>2020-10-03T14:39:28.000Z</time>
      </trkpt>
      <trkpt lat="44.13279" lon="3.19679">
        <ele>679.20001220703</ele>
        <time>2020-10-03T14:39:29.000Z</time>
      </trkpt>
      <trkpt lat="44.13279" lon="3.1968">
        <ele>678.79998779297</ele>
        <time>2020-10-03T14:39:30.000Z</time>
      </trkpt>
      <trkpt lat="44.13278" lon="3.1968">
        <ele>677.79998779297</ele>
        <time>2020-10-03T14:39:32.000Z</time>
      </trkpt>
      <trkpt lat="44.13279" lon="3.1968">
        <ele>677</ele>
        <time>2020-10-03T14:39:33.000Z</time>
      </trkpt>
      <trkpt lat="44.1328" lon="3.19679">
        <ele>675.79998779297</ele>
        <time>2020-10-03T14:39:34.000Z</time>
      </trkpt>
      <trkpt lat="44.1328" lon="3.19678">
        <ele>674.40002441406</ele>
        <time>2020-10-03T14:39:35.000Z</time>
      </trkpt>
      <trkpt lat="44.13279" lon="3.19678">
        <ele>673.40002441406</ele>
        <time>2020-10-03T14:39:36.000Z</time>
      </trkpt>
      <trkpt lat="44.13279" lon="3.19679">
        <ele>672.79998779297</ele>
        <time>2020-10-03T14:39:37.000Z</time>
      </trkpt>
      <trkpt lat="44.13278" lon="3.19679">
        <ele>672.59997558594</ele>
        <time>2020-10-03T14:39:38.000Z</time>
      </trkpt>
      <trkpt lat="44.13278" lon="3.19678">
        <ele>672.40002441406</ele>
        <time>2020-10-03T14:39:39.000Z</time>
      </trkpt>
      <trkpt lat="44.13278" lon="3.19678">
        <ele>672.40002441406</ele>
        <time>2020-10-03T14:39:40.000Z</time>
      </trkpt>
      <trkpt lat="44.13277" lon="3.19677">
        <ele>672.20001220703</ele>
        <time>2020-10-03T14:39:42.000Z</time>
      </trkpt>
      <trkpt lat="44.13274" lon="3.19675">
        <ele>672.20001220703</ele>
        <time>2020-10-03T14:39:44.000Z</time>
      </trkpt>
      <trkpt lat="44.13272" lon="3.19674">
        <ele>672.20001220703</ele>
        <time>2020-10-03T14:39:46.000Z</time>
      </trkpt>
      <trkpt lat="44.1327" lon="3.19672">
        <ele>672.20001220703</ele>
        <time>2020-10-03T14:39:48.000Z</time>
      </trkpt>
      <trkpt lat="44.13269" lon="3.19669">
        <ele>672.20001220703</ele>
        <time>2020-10-03T14:39:50.000Z</time>
      </trkpt>
      <trkpt lat="44.13267" lon="3.19669">
        <ele>672.20001220703</ele>
        <time>2020-10-03T14:39:52.000Z</time>
      </trkpt>
      <trkpt lat="44.13266" lon="3.19669">
        <ele>672.20001220703</ele>
        <time>2020-10-03T14:39:53.000Z</time>
      </trkpt>
      <trkpt lat="44.13265" lon="3.19668">
        <ele>672.20001220703</ele>
        <time>2020-10-03T14:39:54.000Z</time>
      </trkpt>
      <trkpt lat="44.13264" lon="3.19669">
        <ele>671.40002441406</ele>
        <time>2020-10-03T14:39:56.000Z</time>
      </trkpt>
      <trkpt lat="44.13264" lon="3.19669">
        <ele>671.40002441406</ele>
        <time>2020-10-03T14:39:58.000Z</time>
      </trkpt>
      <trkpt lat="44.13263" lon="3.1967">
        <ele>671.20001220703</ele>
        <time>2020-10-03T14:40:00.000Z</time>
      </trkpt>
      <trkpt lat="44.13263" lon="3.19669">
        <ele>671</ele>
        <time>2020-10-03T14:40:02.000Z</time>
      </trkpt>
      <trkpt lat="44.13264" lon="3.19669">
        <ele>671</ele>
        <time>2020-10-03T14:40:04.000Z</time>
      </trkpt>
      <trkpt lat="44.13263" lon="3.1967">
        <ele>671</ele>
        <time>2020-10-03T14:40:06.000Z</time>
      </trkpt>
      <trkpt lat="44.13262" lon="3.19671">
        <ele>671.20001220703</ele>
        <time>2020-10-03T14:40:08.000Z</time>
      </trkpt>
      <trkpt lat="44.13261" lon="3.19675">
        <ele>671.20001220703</ele>
        <time>2020-10-03T14:40:10.000Z</time>
      </trkpt>
      <trkpt lat="44.1326" lon="3.19676">
        <ele>671.20001220703</ele>
        <time>2020-10-03T14:40:12.000Z</time>
      </trkpt>
      <trkpt lat="44.1326" lon="3.19676">
        <ele>671.20001220703</ele>
        <time>2020-10-03T14:40:14.000Z</time>
      </trkpt>
      <trkpt lat="44.1326" lon="3.19678">
        <ele>671.20001220703</ele>
        <time>2020-10-03T14:40:16.000Z</time>
      </trkpt>
      <trkpt lat="44.13259" lon="3.19678">
        <ele>671.20001220703</ele>
        <time>2020-10-03T14:40:18.000Z</time>
      </trkpt>
      <trkpt lat="44.13259" lon="3.1968">
        <ele>671.20001220703</ele>
        <time>2020-10-03T14:40:20.000Z</time>
      </trkpt>
      <trkpt lat="44.13257" lon="3.19682">
        <ele>671.20001220703</ele>
        <time>2020-10-03T14:40:22.000Z</time>
      </trkpt>
      <trkpt lat="44.13255" lon="3.19685">
        <ele>671.40002441406</ele>
        <time>2020-10-03T14:40:24.000Z</time>
      </trkpt>
      <trkpt lat="44.13254" lon="3.19686">
        <ele>671.40002441406</ele>
        <time>2020-10-03T14:40:25.000Z</time>
      </trkpt>
      <trkpt lat="44.13254" lon="3.19687">
        <ele>671.40002441406</ele>
        <time>2020-10-03T14:40:26.000Z</time>
      </trkpt>
      <trkpt lat="44.13254" lon="3.19687">
        <ele>671.40002441406</ele>
        <time>2020-10-03T14:40:28.000Z</time>
      </trkpt>
      <trkpt lat="44.13252" lon="3.19688">
        <ele>671.40002441406</ele>
        <time>2020-10-03T14:40:30.000Z</time>
      </trkpt>
      <trkpt lat="44.13252" lon="3.19688">
        <ele>671.40002441406</ele>
        <time>2020-10-03T14:40:31.000Z</time>
      </trkpt>
      <trkpt lat="44.13251" lon="3.19688">
        <ele>671.40002441406</ele>
        <time>2020-10-03T14:40:32.000Z</time>
      </trkpt>
      <trkpt lat="44.1325" lon="3.19689">
        <ele>671.40002441406</ele>
        <time>2020-10-03T14:40:34.000Z</time>
      </trkpt>
      <trkpt lat="44.13249" lon="3.19689">
        <ele>671.40002441406</ele>
        <time>2020-10-03T14:40:36.000Z</time>
      </trkpt>
      <trkpt lat="44.13249" lon="3.19689">
        <ele>671.40002441406</ele>
        <time>2020-10-03T14:40:38.000Z</time>
      </trkpt>
      <trkpt lat="44.13249" lon="3.19688">
        <ele>671.40002441406</ele>
        <time>2020-10-03T14:40:40.000Z</time>
      </trkpt>
      <trkpt lat="44.1325" lon="3.19687">
        <ele>671.40002441406</ele>
        <time>2020-10-03T14:40:42.000Z</time>
      </trkpt>
      <trkpt lat="44.13251" lon="3.19686">
        <ele>671.40002441406</ele>
        <time>2020-10-03T14:40:44.000Z</time>
      </trkpt>
      <trkpt lat="44.13251" lon="3.19685">
        <ele>671.40002441406</ele>
        <time>2020-10-03T14:40:45.000Z</time>
      </trkpt>
      <trkpt lat="44.13252" lon="3.19684">
        <ele>671.40002441406</ele>
        <time>2020-10-03T14:40:46.000Z</time>
      </trkpt>
      <trkpt lat="44.13255" lon="3.19681">
        <ele>671.40002441406</ele>
        <time>2020-10-03T14:40:48.000Z</time>
      </trkpt>
      <trkpt lat="44.13257" lon="3.19679">
        <ele>671.40002441406</ele>
        <time>2020-10-03T14:40:50.000Z</time>
      </trkpt>
      <trkpt lat="44.13258" lon="3.19677">
        <ele>671.40002441406</ele>
        <time>2020-10-03T14:40:52.000Z</time>
      </trkpt>
      <trkpt lat="44.13259" lon="3.19676">
        <ele>671.40002441406</ele>
        <time>2020-10-03T14:40:54.000Z</time>
      </trkpt>
      <trkpt lat="44.13259" lon="3.19675">
        <ele>671.59997558594</ele>
        <time>2020-10-03T14:40:56.000Z</time>
      </trkpt>
      <trkpt lat="44.13258" lon="3.19675">
        <ele>671.59997558594</ele>
        <time>2020-10-03T14:40:58.000Z</time>
      </trkpt>
      <trkpt lat="44.13258" lon="3.19676">
        <ele>671.59997558594</ele>
        <time>2020-10-03T14:41:00.000Z</time>
      </trkpt>
      <trkpt lat="44.13258" lon="3.19676">
        <ele>671.59997558594</ele>
        <time>2020-10-03T14:41:02.000Z</time>
      </trkpt>
      <trkpt lat="44.13258" lon="3.19677">
        <ele>671.59997558594</ele>
        <time>2020-10-03T14:41:04.000Z</time>
      </trkpt>
      <trkpt lat="44.13259" lon="3.19677">
        <ele>671.59997558594</ele>
        <time>2020-10-03T14:41:06.000Z</time>
      </trkpt>
      <trkpt lat="44.13259" lon="3.19677">
        <ele>671.59997558594</ele>
        <time>2020-10-03T14:41:08.000Z</time>
      </trkpt>
      <trkpt lat="44.13259" lon="3.19677">
        <ele>671.40002441406</ele>
        <time>2020-10-03T14:41:10.000Z</time>
      </trkpt>
      <trkpt lat="44.13259" lon="3.19677">
        <ele>671.40002441406</ele>
        <time>2020-10-03T14:41:12.000Z</time>
      </trkpt>
      <trkpt lat="44.1326" lon="3.19675">
        <ele>671.40002441406</ele>
        <time>2020-10-03T14:41:14.000Z</time>
      </trkpt>
      <trkpt lat="44.13259" lon="3.19675">
        <ele>671.40002441406</ele>
        <time>2020-10-03T14:41:15.000Z</time>
      </trkpt>
      <trkpt lat="44.1326" lon="3.19674">
        <ele>671.40002441406</ele>
        <time>2020-10-03T14:41:16.000Z</time>
      </trkpt>
      <trkpt lat="44.1326" lon="3.19673">
        <ele>671.40002441406</ele>
        <time>2020-10-03T14:41:18.000Z</time>
      </trkpt>
      <trkpt lat="44.1326" lon="3.19672">
        <ele>671.40002441406</ele>
        <time>2020-10-03T14:41:20.000Z</time>
      </trkpt>
      <trkpt lat="44.1326" lon="3.19673">
        <ele>671.59997558594</ele>
        <time>2020-10-03T14:41:22.000Z</time>
      </trkpt>
      <trkpt lat="44.1326" lon="3.19673">
        <ele>671.40002441406</ele>
        <time>2020-10-03T14:41:23.000Z</time>
      </trkpt>
      <trkpt lat="44.1326" lon="3.19673">
        <ele>671.40002441406</ele>
        <time>2020-10-03T14:41:24.000Z</time>
      </trkpt>
      <trkpt lat="44.13261" lon="3.19674">
        <ele>671.59997558594</ele>
        <time>2020-10-03T14:41:26.000Z</time>
      </trkpt>
      <trkpt lat="44.13261" lon="3.19674">
        <ele>671.59997558594</ele>
        <time>2020-10-03T14:41:28.000Z</time>
      </trkpt>
      <trkpt lat="44.13261" lon="3.19673">
        <ele>671.79998779297</ele>
        <time>2020-10-03T14:41:30.000Z</time>
      </trkpt>
      <trkpt lat="44.13261" lon="3.19674">
        <ele>671.79998779297</ele>
        <time>2020-10-03T14:41:32.000Z</time>
      </trkpt>
      <trkpt lat="44.13259" lon="3.19674">
        <ele>671.79998779297</ele>
        <time>2020-10-03T14:41:33.000Z</time>
      </trkpt>
      <trkpt lat="44.13257" lon="3.19675">
        <ele>671.79998779297</ele>
        <time>2020-10-03T14:41:34.000Z</time>
      </trkpt>
      <trkpt lat="44.13256" lon="3.19677">
        <ele>671.79998779297</ele>
        <time>2020-10-03T14:41:36.000Z</time>
      </trkpt>
      <trkpt lat="44.13254" lon="3.19677">
        <ele>671.79998779297</ele>
        <time>2020-10-03T14:41:37.000Z</time>
      </trkpt>
      <trkpt lat="44.13253" lon="3.19677">
        <ele>671.79998779297</ele>
        <time>2020-10-03T14:41:38.000Z</time>
      </trkpt>
      <trkpt lat="44.13251" lon="3.19677">
        <ele>671.79998779297</ele>
        <time>2020-10-03T14:41:39.000Z</time>
      </trkpt>
      <trkpt lat="44.13248" lon="3.19676">
        <ele>671.79998779297</ele>
        <time>2020-10-03T14:41:40.000Z</time>
      </trkpt>
      <trkpt lat="44.1324" lon="3.19677">
        <ele>671.79998779297</ele>
        <time>2020-10-03T14:41:42.000Z</time>
      </trkpt>
      <trkpt lat="44.13236" lon="3.19679">
        <ele>671.79998779297</ele>
        <time>2020-10-03T14:41:43.000Z</time>
      </trkpt>
      <trkpt lat="44.13232" lon="3.19681">
        <ele>671.59997558594</ele>
        <time>2020-10-03T14:41:44.000Z</time>
      </trkpt>
      <trkpt lat="44.13223" lon="3.19682">
        <ele>671</ele>
        <time>2020-10-03T14:41:46.000Z</time>
      </trkpt>
      <trkpt lat="44.13219" lon="3.19682">
        <ele>669.59997558594</ele>
        <time>2020-10-03T14:41:47.000Z</time>
      </trkpt>
      <trkpt lat="44.13217" lon="3.19682">
        <ele>668.79998779297</ele>
        <time>2020-10-03T14:41:48.000Z</time>
      </trkpt>
      <trkpt lat="44.13215" lon="3.19682">
        <ele>667.79998779297</ele>
        <time>2020-10-03T14:41:49.000Z</time>
      </trkpt>
      <trkpt lat="44.13213" lon="3.19683">
        <ele>667.20001220703</ele>
        <time>2020-10-03T14:41:50.000Z</time>
      </trkpt>
      <trkpt lat="44.13212" lon="3.19683">
        <ele>666.59997558594</ele>
        <time>2020-10-03T14:41:51.000Z</time>
      </trkpt>
      <trkpt lat="44.13209" lon="3.19682">
        <ele>666.20001220703</ele>
        <time>2020-10-03T14:41:52.000Z</time>
      </trkpt>
      <trkpt lat="44.13205" lon="3.19679">
        <ele>665.40002441406</ele>
        <time>2020-10-03T14:41:54.000Z</time>
      </trkpt>
      <trkpt lat="44.13203" lon="3.19676">
        <ele>664.79998779297</ele>
        <time>2020-10-03T14:41:56.000Z</time>
      </trkpt>
      <trkpt lat="44.132" lon="3.19675">
        <ele>664.59997558594</ele>
        <time>2020-10-03T14:41:57.000Z</time>
      </trkpt>
      <trkpt lat="44.13197" lon="3.19673">
        <ele>664.40002441406</ele>
        <time>2020-10-03T14:41:58.000Z</time>
      </trkpt>
      <trkpt lat="44.13191" lon="3.19671">
        <ele>664.20001220703</ele>
        <time>2020-10-03T14:42:00.000Z</time>
      </trkpt>
      <trkpt lat="44.13187" lon="3.19666">
        <ele>664.20001220703</ele>
        <time>2020-10-03T14:42:02.000Z</time>
      </trkpt>
      <trkpt lat="44.13185" lon="3.19663">
        <ele>664.20001220703</ele>
        <time>2020-10-03T14:42:03.000Z</time>
      </trkpt>
      <trkpt lat="44.13184" lon="3.19659">
        <ele>664</ele>
        <time>2020-10-03T14:42:04.000Z</time>
      </trkpt>
      <trkpt lat="44.13184" lon="3.19659">
        <ele>663.40002441406</ele>
        <time>2020-10-03T14:42:05.000Z</time>
      </trkpt>
      <trkpt lat="44.13184" lon="3.19657">
        <ele>662.59997558594</ele>
        <time>2020-10-03T14:42:06.000Z</time>
      </trkpt>
      <trkpt lat="44.13184" lon="3.19656">
        <ele>661.59997558594</ele>
        <time>2020-10-03T14:42:07.000Z</time>
      </trkpt>
      <trkpt lat="44.13184" lon="3.19655">
        <ele>660.59997558594</ele>
        <time>2020-10-03T14:42:08.000Z</time>
      </trkpt>
      <trkpt lat="44.13183" lon="3.19654">
        <ele>659.79998779297</ele>
        <time>2020-10-03T14:42:09.000Z</time>
      </trkpt>
      <trkpt lat="44.13182" lon="3.19654">
        <ele>658.79998779297</ele>
        <time>2020-10-03T14:42:10.000Z</time>
      </trkpt>
      <trkpt lat="44.13181" lon="3.19655">
        <ele>657.79998779297</ele>
        <time>2020-10-03T14:42:11.000Z</time>
      </trkpt>
      <trkpt lat="44.13181" lon="3.19654">
        <ele>657</ele>
        <time>2020-10-03T14:42:12.000Z</time>
      </trkpt>
      <trkpt lat="44.13179" lon="3.19652">
        <ele>656.20001220703</ele>
        <time>2020-10-03T14:42:13.000Z</time>
      </trkpt>
      <trkpt lat="44.13178" lon="3.19648">
        <ele>655.40002441406</ele>
        <time>2020-10-03T14:42:14.000Z</time>
      </trkpt>
      <trkpt lat="44.13176" lon="3.19644">
        <ele>654.59997558594</ele>
        <time>2020-10-03T14:42:15.000Z</time>
      </trkpt>
      <trkpt lat="44.13174" lon="3.19639">
        <ele>653.40002441406</ele>
        <time>2020-10-03T14:42:16.000Z</time>
      </trkpt>
      <trkpt lat="44.13169" lon="3.19631">
        <ele>652.59997558594</ele>
        <time>2020-10-03T14:42:18.000Z</time>
      </trkpt>
      <trkpt lat="44.13166" lon="3.1963">
        <ele>652.40002441406</ele>
        <time>2020-10-03T14:42:19.000Z</time>
      </trkpt>
      <trkpt lat="44.13163" lon="3.1963">
        <ele>652.20001220703</ele>
        <time>2020-10-03T14:42:20.000Z</time>
      </trkpt>
      <trkpt lat="44.13158" lon="3.1963">
        <ele>651.20001220703</ele>
        <time>2020-10-03T14:42:22.000Z</time>
      </trkpt>
      <trkpt lat="44.13155" lon="3.1963">
        <ele>650.40002441406</ele>
        <time>2020-10-03T14:42:23.000Z</time>
      </trkpt>
      <trkpt lat="44.13152" lon="3.19631">
        <ele>649.20001220703</ele>
        <time>2020-10-03T14:42:24.000Z</time>
      </trkpt>
      <trkpt lat="44.1315" lon="3.1963">
        <ele>648.59997558594</ele>
        <time>2020-10-03T14:42:25.000Z</time>
      </trkpt>
      <trkpt lat="44.13148" lon="3.19631">
        <ele>648.40002441406</ele>
        <time>2020-10-03T14:42:26.000Z</time>
      </trkpt>
      <trkpt lat="44.13141" lon="3.19634">
        <ele>648</ele>
        <time>2020-10-03T14:42:28.000Z</time>
      </trkpt>
      <trkpt lat="44.13136" lon="3.19639">
        <ele>648</ele>
        <time>2020-10-03T14:42:30.000Z</time>
      </trkpt>
      <trkpt lat="44.13132" lon="3.19645">
        <ele>648</ele>
        <time>2020-10-03T14:42:32.000Z</time>
      </trkpt>
      <trkpt lat="44.13127" lon="3.19654">
        <ele>647.59997558594</ele>
        <time>2020-10-03T14:42:34.000Z</time>
      </trkpt>
      <trkpt lat="44.1312" lon="3.1966">
        <ele>647.59997558594</ele>
        <time>2020-10-03T14:42:36.000Z</time>
      </trkpt>
      <trkpt lat="44.13117" lon="3.19663">
        <ele>647.59997558594</ele>
        <time>2020-10-03T14:42:37.000Z</time>
      </trkpt>
      <trkpt lat="44.13114" lon="3.19663">
        <ele>647.59997558594</ele>
        <time>2020-10-03T14:42:38.000Z</time>
      </trkpt>
      <trkpt lat="44.13111" lon="3.19662">
        <ele>647.59997558594</ele>
        <time>2020-10-03T14:42:39.000Z</time>
      </trkpt>
      <trkpt lat="44.13108" lon="3.19663">
        <ele>647.59997558594</ele>
        <time>2020-10-03T14:42:40.000Z</time>
      </trkpt>
      <trkpt lat="44.13099" lon="3.19661">
        <ele>647.59997558594</ele>
        <time>2020-10-03T14:42:42.000Z</time>
      </trkpt>
      <trkpt lat="44.13096" lon="3.19661">
        <ele>647.40002441406</ele>
        <time>2020-10-03T14:42:43.000Z</time>
      </trkpt>
      <trkpt lat="44.13092" lon="3.1966">
        <ele>647.20001220703</ele>
        <time>2020-10-03T14:42:44.000Z</time>
      </trkpt>
      <trkpt lat="44.13081" lon="3.19658">
        <ele>646.79998779297</ele>
        <time>2020-10-03T14:42:46.000Z</time>
      </trkpt>
      <trkpt lat="44.13078" lon="3.19657">
        <ele>646.59997558594</ele>
        <time>2020-10-03T14:42:47.000Z</time>
      </trkpt>
      <trkpt lat="44.13074" lon="3.19655">
        <ele>646.40002441406</ele>
        <time>2020-10-03T14:42:48.000Z</time>
      </trkpt>
      <trkpt lat="44.13071" lon="3.19653">
        <ele>646</ele>
        <time>2020-10-03T14:42:49.000Z</time>
      </trkpt>
      <trkpt lat="44.13066" lon="3.19652">
        <ele>645.40002441406</ele>
        <time>2020-10-03T14:42:50.000Z</time>
      </trkpt>
      <trkpt lat="44.13062" lon="3.1965">
        <ele>644.79998779297</ele>
        <time>2020-10-03T14:42:51.000Z</time>
      </trkpt>
      <trkpt lat="44.13059" lon="3.19649">
        <ele>644.40002441406</ele>
        <time>2020-10-03T14:42:52.000Z</time>
      </trkpt>
      <trkpt lat="44.13056" lon="3.19648">
        <ele>643.20001220703</ele>
        <time>2020-10-03T14:42:54.000Z</time>
      </trkpt>
      <trkpt lat="44.13055" lon="3.19647">
        <ele>642.59997558594</ele>
        <time>2020-10-03T14:42:55.000Z</time>
      </trkpt>
      <trkpt lat="44.13055" lon="3.19647">
        <ele>642.20001220703</ele>
        <time>2020-10-03T14:42:56.000Z</time>
      </trkpt>
      <trkpt lat="44.13058" lon="3.19646">
        <ele>641.20001220703</ele>
        <time>2020-10-03T14:42:58.000Z</time>
      </trkpt>
      <trkpt lat="44.1306" lon="3.19644">
        <ele>640.59997558594</ele>
        <time>2020-10-03T14:42:59.000Z</time>
      </trkpt>
      <trkpt lat="44.13062" lon="3.19645">
        <ele>640</ele>
        <time>2020-10-03T14:43:00.000Z</time>
      </trkpt>
      <trkpt lat="44.13065" lon="3.19645">
        <ele>639.20001220703</ele>
        <time>2020-10-03T14:43:01.000Z</time>
      </trkpt>
      <trkpt lat="44.13067" lon="3.19645">
        <ele>638.20001220703</ele>
        <time>2020-10-03T14:43:02.000Z</time>
      </trkpt>
      <trkpt lat="44.13069" lon="3.19644">
        <ele>637.40002441406</ele>
        <time>2020-10-03T14:43:03.000Z</time>
      </trkpt>
      <trkpt lat="44.1307" lon="3.19642">
        <ele>636.79998779297</ele>
        <time>2020-10-03T14:43:04.000Z</time>
      </trkpt>
      <trkpt lat="44.13068" lon="3.19638">
        <ele>636.20001220703</ele>
        <time>2020-10-03T14:43:06.000Z</time>
      </trkpt>
      <trkpt lat="44.13065" lon="3.19636">
        <ele>635.79998779297</ele>
        <time>2020-10-03T14:43:07.000Z</time>
      </trkpt>
      <trkpt lat="44.13063" lon="3.19633">
        <ele>635.20001220703</ele>
        <time>2020-10-03T14:43:08.000Z</time>
      </trkpt>
      <trkpt lat="44.13061" lon="3.1963">
        <ele>634.79998779297</ele>
        <time>2020-10-03T14:43:09.000Z</time>
      </trkpt>
      <trkpt lat="44.13058" lon="3.19627">
        <ele>634.20001220703</ele>
        <time>2020-10-03T14:43:10.000Z</time>
      </trkpt>
      <trkpt lat="44.13055" lon="3.19625">
        <ele>633.79998779297</ele>
        <time>2020-10-03T14:43:11.000Z</time>
      </trkpt>
      <trkpt lat="44.13051" lon="3.19622">
        <ele>632.79998779297</ele>
        <time>2020-10-03T14:43:12.000Z</time>
      </trkpt>
      <trkpt lat="44.13045" lon="3.19617">
        <ele>632.40002441406</ele>
        <time>2020-10-03T14:43:14.000Z</time>
      </trkpt>
      <trkpt lat="44.13037" lon="3.19613">
        <ele>632.20001220703</ele>
        <time>2020-10-03T14:43:16.000Z</time>
      </trkpt>
      <trkpt lat="44.1303" lon="3.19611">
        <ele>632</ele>
        <time>2020-10-03T14:43:18.000Z</time>
      </trkpt>
      <trkpt lat="44.13024" lon="3.19607">
        <ele>631.59997558594</ele>
        <time>2020-10-03T14:43:20.000Z</time>
      </trkpt>
      <trkpt lat="44.13018" lon="3.19602">
        <ele>630.59997558594</ele>
        <time>2020-10-03T14:43:22.000Z</time>
      </trkpt>
      <trkpt lat="44.13013" lon="3.196">
        <ele>630</ele>
        <time>2020-10-03T14:43:23.000Z</time>
      </trkpt>
      <trkpt lat="44.13008" lon="3.19598">
        <ele>628.59997558594</ele>
        <time>2020-10-03T14:43:24.000Z</time>
      </trkpt>
      <trkpt lat="44.13005" lon="3.19596">
        <ele>627.59997558594</ele>
        <time>2020-10-03T14:43:25.000Z</time>
      </trkpt>
      <trkpt lat="44.13002" lon="3.19595">
        <ele>626.79998779297</ele>
        <time>2020-10-03T14:43:26.000Z</time>
      </trkpt>
      <trkpt lat="44.12998" lon="3.19594">
        <ele>626</ele>
        <time>2020-10-03T14:43:27.000Z</time>
      </trkpt>
      <trkpt lat="44.12995" lon="3.19593">
        <ele>625.20001220703</ele>
        <time>2020-10-03T14:43:28.000Z</time>
      </trkpt>
      <trkpt lat="44.12993" lon="3.19595">
        <ele>624.40002441406</ele>
        <time>2020-10-03T14:43:29.000Z</time>
      </trkpt>
      <trkpt lat="44.12991" lon="3.19597">
        <ele>623.79998779297</ele>
        <time>2020-10-03T14:43:30.000Z</time>
      </trkpt>
      <trkpt lat="44.1299" lon="3.19598">
        <ele>623.40002441406</ele>
        <time>2020-10-03T14:43:31.000Z</time>
      </trkpt>
      <trkpt lat="44.12989" lon="3.19598">
        <ele>623.20001220703</ele>
        <time>2020-10-03T14:43:32.000Z</time>
      </trkpt>
      <trkpt lat="44.12986" lon="3.19597">
        <ele>622.79998779297</ele>
        <time>2020-10-03T14:43:34.000Z</time>
      </trkpt>
      <trkpt lat="44.12984" lon="3.19596">
        <ele>622.40002441406</ele>
        <time>2020-10-03T14:43:35.000Z</time>
      </trkpt>
      <trkpt lat="44.12981" lon="3.19597">
        <ele>622</ele>
        <time>2020-10-03T14:43:36.000Z</time>
      </trkpt>
      <trkpt lat="44.12975" lon="3.19594">
        <ele>620.40002441406</ele>
        <time>2020-10-03T14:43:38.000Z</time>
      </trkpt>
      <trkpt lat="44.1297" lon="3.19592">
        <ele>619.59997558594</ele>
        <time>2020-10-03T14:43:39.000Z</time>
      </trkpt>
      <trkpt lat="44.12964" lon="3.19591">
        <ele>618.79998779297</ele>
        <time>2020-10-03T14:43:40.000Z</time>
      </trkpt>
      <trkpt lat="44.12958" lon="3.19588">
        <ele>616.59997558594</ele>
        <time>2020-10-03T14:43:41.000Z</time>
      </trkpt>
      <trkpt lat="44.12952" lon="3.19585">
        <ele>615.79998779297</ele>
        <time>2020-10-03T14:43:42.000Z</time>
      </trkpt>
      <trkpt lat="44.12948" lon="3.19584">
        <ele>615.40002441406</ele>
        <time>2020-10-03T14:43:43.000Z</time>
      </trkpt>
      <trkpt lat="44.12946" lon="3.19584">
        <ele>615</ele>
        <time>2020-10-03T14:43:44.000Z</time>
      </trkpt>
      <trkpt lat="44.12945" lon="3.19586">
        <ele>614.79998779297</ele>
        <time>2020-10-03T14:43:46.000Z</time>
      </trkpt>
      <trkpt lat="44.12944" lon="3.19587">
        <ele>614.59997558594</ele>
        <time>2020-10-03T14:43:47.000Z</time>
      </trkpt>
      <trkpt lat="44.12943" lon="3.19589">
        <ele>613.40002441406</ele>
        <time>2020-10-03T14:43:48.000Z</time>
      </trkpt>
      <trkpt lat="44.12937" lon="3.19594">
        <ele>611</ele>
        <time>2020-10-03T14:43:50.000Z</time>
      </trkpt>
      <trkpt lat="44.12935" lon="3.19596">
        <ele>609.59997558594</ele>
        <time>2020-10-03T14:43:51.000Z</time>
      </trkpt>
      <trkpt lat="44.12932" lon="3.19598">
        <ele>608.59997558594</ele>
        <time>2020-10-03T14:43:52.000Z</time>
      </trkpt>
      <trkpt lat="44.12926" lon="3.19602">
        <ele>606.59997558594</ele>
        <time>2020-10-03T14:43:54.000Z</time>
      </trkpt>
      <trkpt lat="44.12919" lon="3.19606">
        <ele>605.40002441406</ele>
        <time>2020-10-03T14:43:56.000Z</time>
      </trkpt>
      <trkpt lat="44.12912" lon="3.19607">
        <ele>604.59997558594</ele>
        <time>2020-10-03T14:43:58.000Z</time>
      </trkpt>
      <trkpt lat="44.12909" lon="3.19605">
        <ele>604.20001220703</ele>
        <time>2020-10-03T14:43:59.000Z</time>
      </trkpt>
      <trkpt lat="44.12906" lon="3.19603">
        <ele>604.20001220703</ele>
        <time>2020-10-03T14:44:00.000Z</time>
      </trkpt>
      <trkpt lat="44.12901" lon="3.19601">
        <ele>604</ele>
        <time>2020-10-03T14:44:02.000Z</time>
      </trkpt>
      <trkpt lat="44.129" lon="3.19599">
        <ele>603.79998779297</ele>
        <time>2020-10-03T14:44:04.000Z</time>
      </trkpt>
      <trkpt lat="44.12902" lon="3.19599">
        <ele>603.40002441406</ele>
        <time>2020-10-03T14:44:05.000Z</time>
      </trkpt>
      <trkpt lat="44.12903" lon="3.19598">
        <ele>602.59997558594</ele>
        <time>2020-10-03T14:44:06.000Z</time>
      </trkpt>
      <trkpt lat="44.12906" lon="3.19595">
        <ele>601</ele>
        <time>2020-10-03T14:44:08.000Z</time>
      </trkpt>
      <trkpt lat="44.12906" lon="3.19595">
        <ele>599.79998779297</ele>
        <time>2020-10-03T14:44:09.000Z</time>
      </trkpt>
      <trkpt lat="44.12905" lon="3.19595">
        <ele>597.20001220703</ele>
        <time>2020-10-03T14:44:10.000Z</time>
      </trkpt>
      <trkpt lat="44.12903" lon="3.19595">
        <ele>596</ele>
        <time>2020-10-03T14:44:11.000Z</time>
      </trkpt>
      <trkpt lat="44.12902" lon="3.19595">
        <ele>594.79998779297</ele>
        <time>2020-10-03T14:44:12.000Z</time>
      </trkpt>
      <trkpt lat="44.12898" lon="3.19594">
        <ele>593.79998779297</ele>
        <time>2020-10-03T14:44:13.000Z</time>
      </trkpt>
      <trkpt lat="44.12893" lon="3.19593">
        <ele>592.79998779297</ele>
        <time>2020-10-03T14:44:14.000Z</time>
      </trkpt>
      <trkpt lat="44.12888" lon="3.19592">
        <ele>592.20001220703</ele>
        <time>2020-10-03T14:44:15.000Z</time>
      </trkpt>
      <trkpt lat="44.12882" lon="3.19591">
        <ele>591.40002441406</ele>
        <time>2020-10-03T14:44:16.000Z</time>
      </trkpt>
      <trkpt lat="44.12878" lon="3.19589">
        <ele>590.79998779297</ele>
        <time>2020-10-03T14:44:17.000Z</time>
      </trkpt>
      <trkpt lat="44.12875" lon="3.19589">
        <ele>590.40002441406</ele>
        <time>2020-10-03T14:44:18.000Z</time>
      </trkpt>
      <trkpt lat="44.12866" lon="3.19589">
        <ele>589.40002441406</ele>
        <time>2020-10-03T14:44:20.000Z</time>
      </trkpt>
      <trkpt lat="44.12857" lon="3.19589">
        <ele>588</ele>
        <time>2020-10-03T14:44:22.000Z</time>
      </trkpt>
      <trkpt lat="44.12853" lon="3.19589">
        <ele>586.79998779297</ele>
        <time>2020-10-03T14:44:23.000Z</time>
      </trkpt>
      <trkpt lat="44.12848" lon="3.19589">
        <ele>585.59997558594</ele>
        <time>2020-10-03T14:44:24.000Z</time>
      </trkpt>
      <trkpt lat="44.12844" lon="3.19589">
        <ele>584.40002441406</ele>
        <time>2020-10-03T14:44:25.000Z</time>
      </trkpt>
      <trkpt lat="44.1284" lon="3.19589">
        <ele>582.79998779297</ele>
        <time>2020-10-03T14:44:26.000Z</time>
      </trkpt>
      <trkpt lat="44.12835" lon="3.19589">
        <ele>581.40002441406</ele>
        <time>2020-10-03T14:44:27.000Z</time>
      </trkpt>
      <trkpt lat="44.1283" lon="3.19588">
        <ele>580</ele>
        <time>2020-10-03T14:44:28.000Z</time>
      </trkpt>
      <trkpt lat="44.12825" lon="3.19588">
        <ele>578.79998779297</ele>
        <time>2020-10-03T14:44:29.000Z</time>
      </trkpt>
      <trkpt lat="44.1282" lon="3.19589">
        <ele>577.40002441406</ele>
        <time>2020-10-03T14:44:30.000Z</time>
      </trkpt>
      <trkpt lat="44.12817" lon="3.19588">
        <ele>576</ele>
        <time>2020-10-03T14:44:31.000Z</time>
      </trkpt>
      <trkpt lat="44.12814" lon="3.19586">
        <ele>574.59997558594</ele>
        <time>2020-10-03T14:44:32.000Z</time>
      </trkpt>
      <trkpt lat="44.12812" lon="3.19584">
        <ele>572.79998779297</ele>
        <time>2020-10-03T14:44:33.000Z</time>
      </trkpt>
      <trkpt lat="44.12811" lon="3.19583">
        <ele>571.40002441406</ele>
        <time>2020-10-03T14:44:34.000Z</time>
      </trkpt>
      <trkpt lat="44.12811" lon="3.19581">
        <ele>570</ele>
        <time>2020-10-03T14:44:35.000Z</time>
      </trkpt>
      <trkpt lat="44.1281" lon="3.19578">
        <ele>568</ele>
        <time>2020-10-03T14:44:36.000Z</time>
      </trkpt>
      <trkpt lat="44.12809" lon="3.19575">
        <ele>566.20001220703</ele>
        <time>2020-10-03T14:44:37.000Z</time>
      </trkpt>
      <trkpt lat="44.12807" lon="3.19573">
        <ele>564.79998779297</ele>
        <time>2020-10-03T14:44:38.000Z</time>
      </trkpt>
      <trkpt lat="44.12803" lon="3.19572">
        <ele>562.59997558594</ele>
        <time>2020-10-03T14:44:39.000Z</time>
      </trkpt>
      <trkpt lat="44.12799" lon="3.19571">
        <ele>561.20001220703</ele>
        <time>2020-10-03T14:44:40.000Z</time>
      </trkpt>
      <trkpt lat="44.12793" lon="3.1957">
        <ele>559.40002441406</ele>
        <time>2020-10-03T14:44:41.000Z</time>
      </trkpt>
      <trkpt lat="44.1279" lon="3.19569">
        <ele>557.79998779297</ele>
        <time>2020-10-03T14:44:42.000Z</time>
      </trkpt>
      <trkpt lat="44.12786" lon="3.19567">
        <ele>556.59997558594</ele>
        <time>2020-10-03T14:44:43.000Z</time>
      </trkpt>
      <trkpt lat="44.12782" lon="3.19565">
        <ele>555.59997558594</ele>
        <time>2020-10-03T14:44:44.000Z</time>
      </trkpt>
      <trkpt lat="44.12778" lon="3.19562">
        <ele>554.40002441406</ele>
        <time>2020-10-03T14:44:45.000Z</time>
      </trkpt>
      <trkpt lat="44.12773" lon="3.1956">
        <ele>553.40002441406</ele>
        <time>2020-10-03T14:44:46.000Z</time>
      </trkpt>
      <trkpt lat="44.12769" lon="3.19557">
        <ele>552.20001220703</ele>
        <time>2020-10-03T14:44:47.000Z</time>
      </trkpt>
      <trkpt lat="44.12765" lon="3.19556">
        <ele>551</ele>
        <time>2020-10-03T14:44:48.000Z</time>
      </trkpt>
      <trkpt lat="44.12762" lon="3.19554">
        <ele>549.79998779297</ele>
        <time>2020-10-03T14:44:49.000Z</time>
      </trkpt>
      <trkpt lat="44.1276" lon="3.19553">
        <ele>549</ele>
        <time>2020-10-03T14:44:50.000Z</time>
      </trkpt>
      <trkpt lat="44.12756" lon="3.19551">
        <ele>548.40002441406</ele>
        <time>2020-10-03T14:44:51.000Z</time>
      </trkpt>
      <trkpt lat="44.12752" lon="3.19548">
        <ele>547.40002441406</ele>
        <time>2020-10-03T14:44:52.000Z</time>
      </trkpt>
      <trkpt lat="44.12747" lon="3.19546">
        <ele>546.20001220703</ele>
        <time>2020-10-03T14:44:53.000Z</time>
      </trkpt>
      <trkpt lat="44.12742" lon="3.19545">
        <ele>544.59997558594</ele>
        <time>2020-10-03T14:44:54.000Z</time>
      </trkpt>
      <trkpt lat="44.12737" lon="3.19542">
        <ele>542.59997558594</ele>
        <time>2020-10-03T14:44:55.000Z</time>
      </trkpt>
      <trkpt lat="44.12733" lon="3.19539">
        <ele>541</ele>
        <time>2020-10-03T14:44:56.000Z</time>
      </trkpt>
      <trkpt lat="44.1273" lon="3.19537">
        <ele>539.40002441406</ele>
        <time>2020-10-03T14:44:57.000Z</time>
      </trkpt>
      <trkpt lat="44.12727" lon="3.19534">
        <ele>537.59997558594</ele>
        <time>2020-10-03T14:44:58.000Z</time>
      </trkpt>
      <trkpt lat="44.12725" lon="3.19532">
        <ele>536.20001220703</ele>
        <time>2020-10-03T14:44:59.000Z</time>
      </trkpt>
      <trkpt lat="44.12723" lon="3.19528">
        <ele>534.79998779297</ele>
        <time>2020-10-03T14:45:00.000Z</time>
      </trkpt>
      <trkpt lat="44.12721" lon="3.19525">
        <ele>533</ele>
        <time>2020-10-03T14:45:01.000Z</time>
      </trkpt>
      <trkpt lat="44.12718" lon="3.19523">
        <ele>531.20001220703</ele>
        <time>2020-10-03T14:45:02.000Z</time>
      </trkpt>
      <trkpt lat="44.12715" lon="3.19522">
        <ele>530.20001220703</ele>
        <time>2020-10-03T14:45:03.000Z</time>
      </trkpt>
      <trkpt lat="44.12711" lon="3.19521">
        <ele>529</ele>
        <time>2020-10-03T14:45:04.000Z</time>
      </trkpt>
      <trkpt lat="44.12706" lon="3.1952">
        <ele>527.79998779297</ele>
        <time>2020-10-03T14:45:05.000Z</time>
      </trkpt>
      <trkpt lat="44.12699" lon="3.19517">
        <ele>526.40002441406</ele>
        <time>2020-10-03T14:45:06.000Z</time>
      </trkpt>
      <trkpt lat="44.12693" lon="3.19517">
        <ele>523.59997558594</ele>
        <time>2020-10-03T14:45:07.000Z</time>
      </trkpt>
      <trkpt lat="44.12687" lon="3.19516">
        <ele>522</ele>
        <time>2020-10-03T14:45:08.000Z</time>
      </trkpt>
      <trkpt lat="44.12682" lon="3.19515">
        <ele>520.20001220703</ele>
        <time>2020-10-03T14:45:09.000Z</time>
      </trkpt>
      <trkpt lat="44.12676" lon="3.19512">
        <ele>518.79998779297</ele>
        <time>2020-10-03T14:45:10.000Z</time>
      </trkpt>
      <trkpt lat="44.12669" lon="3.1951">
        <ele>517.40002441406</ele>
        <time>2020-10-03T14:45:12.000Z</time>
      </trkpt>
      <trkpt lat="44.12666" lon="3.19509">
        <ele>516.59997558594</ele>
        <time>2020-10-03T14:45:13.000Z</time>
      </trkpt>
      <trkpt lat="44.12662" lon="3.19508">
        <ele>515.40002441406</ele>
        <time>2020-10-03T14:45:14.000Z</time>
      </trkpt>
      <trkpt lat="44.12658" lon="3.19506">
        <ele>513.79998779297</ele>
        <time>2020-10-03T14:45:15.000Z</time>
      </trkpt>
      <trkpt lat="44.12653" lon="3.19503">
        <ele>512.59997558594</ele>
        <time>2020-10-03T14:45:16.000Z</time>
      </trkpt>
      <trkpt lat="44.12649" lon="3.195">
        <ele>511.20001220703</ele>
        <time>2020-10-03T14:45:17.000Z</time>
      </trkpt>
      <trkpt lat="44.12645" lon="3.19499">
        <ele>510</ele>
        <time>2020-10-03T14:45:18.000Z</time>
      </trkpt>
      <trkpt lat="44.1264" lon="3.19498">
        <ele>508.79998779297</ele>
        <time>2020-10-03T14:45:19.000Z</time>
      </trkpt>
      <trkpt lat="44.12634" lon="3.19499">
        <ele>508</ele>
        <time>2020-10-03T14:45:20.000Z</time>
      </trkpt>
      <trkpt lat="44.12628" lon="3.19498">
        <ele>507.39999389648</ele>
        <time>2020-10-03T14:45:21.000Z</time>
      </trkpt>
      <trkpt lat="44.12624" lon="3.19498">
        <ele>506.60000610352</ele>
        <time>2020-10-03T14:45:22.000Z</time>
      </trkpt>
      <trkpt lat="44.12619" lon="3.195">
        <ele>505.79998779297</ele>
        <time>2020-10-03T14:45:23.000Z</time>
      </trkpt>
      <trkpt lat="44.12615" lon="3.195">
        <ele>505</ele>
        <time>2020-10-03T14:45:24.000Z</time>
      </trkpt>
      <trkpt lat="44.12611" lon="3.19501">
        <ele>504.60000610352</ele>
        <time>2020-10-03T14:45:25.000Z</time>
      </trkpt>
      <trkpt lat="44.12607" lon="3.19502">
        <ele>504.20001220703</ele>
        <time>2020-10-03T14:45:26.000Z</time>
      </trkpt>
      <trkpt lat="44.12599" lon="3.19503">
        <ele>503.39999389648</ele>
        <time>2020-10-03T14:45:28.000Z</time>
      </trkpt>
      <trkpt lat="44.12596" lon="3.19503">
        <ele>502.39999389648</ele>
        <time>2020-10-03T14:45:29.000Z</time>
      </trkpt>
      <trkpt lat="44.12593" lon="3.19505">
        <ele>501.20001220703</ele>
        <time>2020-10-03T14:45:30.000Z</time>
      </trkpt>
      <trkpt lat="44.1259" lon="3.19507">
        <ele>500</ele>
        <time>2020-10-03T14:45:31.000Z</time>
      </trkpt>
      <trkpt lat="44.12588" lon="3.19509">
        <ele>499.39999389648</ele>
        <time>2020-10-03T14:45:32.000Z</time>
      </trkpt>
      <trkpt lat="44.12582" lon="3.19517">
        <ele>499</ele>
        <time>2020-10-03T14:45:34.000Z</time>
      </trkpt>
      <trkpt lat="44.12578" lon="3.19527">
        <ele>498.79998779297</ele>
        <time>2020-10-03T14:45:36.000Z</time>
      </trkpt>
      <trkpt lat="44.12573" lon="3.1954">
        <ele>498.60000610352</ele>
        <time>2020-10-03T14:45:38.000Z</time>
      </trkpt>
      <trkpt lat="44.1257" lon="3.19546">
        <ele>498.60000610352</ele>
        <time>2020-10-03T14:45:39.000Z</time>
      </trkpt>
      <trkpt lat="44.12567" lon="3.19553">
        <ele>498.60000610352</ele>
        <time>2020-10-03T14:45:40.000Z</time>
      </trkpt>
      <trkpt lat="44.12559" lon="3.19565">
        <ele>498.39999389648</ele>
        <time>2020-10-03T14:45:42.000Z</time>
      </trkpt>
      <trkpt lat="44.12554" lon="3.19571">
        <ele>498.39999389648</ele>
        <time>2020-10-03T14:45:43.000Z</time>
      </trkpt>
      <trkpt lat="44.1255" lon="3.19577">
        <ele>498.39999389648</ele>
        <time>2020-10-03T14:45:44.000Z</time>
      </trkpt>
      <trkpt lat="44.12544" lon="3.19591">
        <ele>498.20001220703</ele>
        <time>2020-10-03T14:45:46.000Z</time>
      </trkpt>
      <trkpt lat="44.1253" lon="3.196">
        <ele>497.79998779297</ele>
        <time>2020-10-03T14:45:48.000Z</time>
      </trkpt>
      <trkpt lat="44.12522" lon="3.19605">
        <ele>497.60000610352</ele>
        <time>2020-10-03T14:45:49.000Z</time>
      </trkpt>
      <trkpt lat="44.12515" lon="3.1961">
        <ele>497</ele>
        <time>2020-10-03T14:45:50.000Z</time>
      </trkpt>
      <trkpt lat="44.12507" lon="3.19616">
        <ele>496.20001220703</ele>
        <time>2020-10-03T14:45:51.000Z</time>
      </trkpt>
      <trkpt lat="44.12502" lon="3.19622">
        <ele>495.60000610352</ele>
        <time>2020-10-03T14:45:52.000Z</time>
      </trkpt>
      <trkpt lat="44.12496" lon="3.19629">
        <ele>494.79998779297</ele>
        <time>2020-10-03T14:45:53.000Z</time>
      </trkpt>
      <trkpt lat="44.12489" lon="3.19635">
        <ele>493.79998779297</ele>
        <time>2020-10-03T14:45:54.000Z</time>
      </trkpt>
      <trkpt lat="44.12483" lon="3.1964">
        <ele>492.79998779297</ele>
        <time>2020-10-03T14:45:55.000Z</time>
      </trkpt>
      <trkpt lat="44.12478" lon="3.19644">
        <ele>491.39999389648</ele>
        <time>2020-10-03T14:45:56.000Z</time>
      </trkpt>
      <trkpt lat="44.12472" lon="3.19648">
        <ele>489.79998779297</ele>
        <time>2020-10-03T14:45:57.000Z</time>
      </trkpt>
      <trkpt lat="44.12466" lon="3.19651">
        <ele>488.60000610352</ele>
        <time>2020-10-03T14:45:58.000Z</time>
      </trkpt>
      <trkpt lat="44.12461" lon="3.19654">
        <ele>487.60000610352</ele>
        <time>2020-10-03T14:45:59.000Z</time>
      </trkpt>
      <trkpt lat="44.12456" lon="3.19655">
        <ele>486.60000610352</ele>
        <time>2020-10-03T14:46:00.000Z</time>
      </trkpt>
      <trkpt lat="44.1245" lon="3.19657">
        <ele>486</ele>
        <time>2020-10-03T14:46:01.000Z</time>
      </trkpt>
      <trkpt lat="44.12445" lon="3.19658">
        <ele>485.60000610352</ele>
        <time>2020-10-03T14:46:02.000Z</time>
      </trkpt>
      <trkpt lat="44.12439" lon="3.1966">
        <ele>485</ele>
        <time>2020-10-03T14:46:03.000Z</time>
      </trkpt>
      <trkpt lat="44.12433" lon="3.19661">
        <ele>484</ele>
        <time>2020-10-03T14:46:04.000Z</time>
      </trkpt>
      <trkpt lat="44.1242" lon="3.19662">
        <ele>483</ele>
        <time>2020-10-03T14:46:06.000Z</time>
      </trkpt>
      <trkpt lat="44.12413" lon="3.19664">
        <ele>482.39999389648</ele>
        <time>2020-10-03T14:46:07.000Z</time>
      </trkpt>
      <trkpt lat="44.12406" lon="3.19668">
        <ele>481.39999389648</ele>
        <time>2020-10-03T14:46:08.000Z</time>
      </trkpt>
      <trkpt lat="44.124" lon="3.19672">
        <ele>480.20001220703</ele>
        <time>2020-10-03T14:46:09.000Z</time>
      </trkpt>
      <trkpt lat="44.12394" lon="3.19676">
        <ele>479.20001220703</ele>
        <time>2020-10-03T14:46:10.000Z</time>
      </trkpt>
      <trkpt lat="44.12387" lon="3.1968">
        <ele>477.60000610352</ele>
        <time>2020-10-03T14:46:11.000Z</time>
      </trkpt>
      <trkpt lat="44.1238" lon="3.19683">
        <ele>475.79998779297</ele>
        <time>2020-10-03T14:46:12.000Z</time>
      </trkpt>
      <trkpt lat="44.12374" lon="3.19686">
        <ele>474</ele>
        <time>2020-10-03T14:46:13.000Z</time>
      </trkpt>
      <trkpt lat="44.12369" lon="3.1969">
        <ele>473.20001220703</ele>
        <time>2020-10-03T14:46:14.000Z</time>
      </trkpt>
      <trkpt lat="44.12365" lon="3.19694">
        <ele>471.39999389648</ele>
        <time>2020-10-03T14:46:15.000Z</time>
      </trkpt>
      <trkpt lat="44.12363" lon="3.19698">
        <ele>470</ele>
        <time>2020-10-03T14:46:16.000Z</time>
      </trkpt>
      <trkpt lat="44.12364" lon="3.19701">
        <ele>468.79998779297</ele>
        <time>2020-10-03T14:46:17.000Z</time>
      </trkpt>
      <trkpt lat="44.12365" lon="3.19705">
        <ele>468</ele>
        <time>2020-10-03T14:46:18.000Z</time>
      </trkpt>
      <trkpt lat="44.12367" lon="3.19709">
        <ele>467.60000610352</ele>
        <time>2020-10-03T14:46:19.000Z</time>
      </trkpt>
      <trkpt lat="44.12367" lon="3.19714">
        <ele>467.20001220703</ele>
        <time>2020-10-03T14:46:20.000Z</time>
      </trkpt>
      <trkpt lat="44.12366" lon="3.19724">
        <ele>466.79998779297</ele>
        <time>2020-10-03T14:46:22.000Z</time>
      </trkpt>
      <trkpt lat="44.12365" lon="3.19729">
        <ele>466.39999389648</ele>
        <time>2020-10-03T14:46:23.000Z</time>
      </trkpt>
      <trkpt lat="44.12365" lon="3.19734">
        <ele>466</ele>
        <time>2020-10-03T14:46:24.000Z</time>
      </trkpt>
      <trkpt lat="44.12367" lon="3.19745">
        <ele>465.39999389648</ele>
        <time>2020-10-03T14:46:26.000Z</time>
      </trkpt>
      <trkpt lat="44.12366" lon="3.19751">
        <ele>465.20001220703</ele>
        <time>2020-10-03T14:46:27.000Z</time>
      </trkpt>
      <trkpt lat="44.12365" lon="3.19757">
        <ele>465</ele>
        <time>2020-10-03T14:46:28.000Z</time>
      </trkpt>
      <trkpt lat="44.12364" lon="3.19767">
        <ele>464.39999389648</ele>
        <time>2020-10-03T14:46:30.000Z</time>
      </trkpt>
      <trkpt lat="44.12365" lon="3.19772">
        <ele>464.20001220703</ele>
        <time>2020-10-03T14:46:31.000Z</time>
      </trkpt>
      <trkpt lat="44.12369" lon="3.19777">
        <ele>463.60000610352</ele>
        <time>2020-10-03T14:46:32.000Z</time>
      </trkpt>
      <trkpt lat="44.12373" lon="3.19783">
        <ele>463</ele>
        <time>2020-10-03T14:46:33.000Z</time>
      </trkpt>
      <trkpt lat="44.12377" lon="3.19788">
        <ele>462.79998779297</ele>
        <time>2020-10-03T14:46:34.000Z</time>
      </trkpt>
      <trkpt lat="44.12381" lon="3.19794">
        <ele>461.79998779297</ele>
        <time>2020-10-03T14:46:35.000Z</time>
      </trkpt>
      <trkpt lat="44.12385" lon="3.19799">
        <ele>460.79998779297</ele>
        <time>2020-10-03T14:46:36.000Z</time>
      </trkpt>
      <trkpt lat="44.12388" lon="3.19804">
        <ele>459.79998779297</ele>
        <time>2020-10-03T14:46:37.000Z</time>
      </trkpt>
      <trkpt lat="44.12391" lon="3.19809">
        <ele>458.79998779297</ele>
        <time>2020-10-03T14:46:38.000Z</time>
      </trkpt>
      <trkpt lat="44.12394" lon="3.19814">
        <ele>458.20001220703</ele>
        <time>2020-10-03T14:46:39.000Z</time>
      </trkpt>
      <trkpt lat="44.12398" lon="3.19815">
        <ele>457.20001220703</ele>
        <time>2020-10-03T14:46:40.000Z</time>
      </trkpt>
      <trkpt lat="44.12406" lon="3.19815">
        <ele>455.20001220703</ele>
        <time>2020-10-03T14:46:42.000Z</time>
      </trkpt>
      <trkpt lat="44.12411" lon="3.19814">
        <ele>454</ele>
        <time>2020-10-03T14:46:43.000Z</time>
      </trkpt>
      <trkpt lat="44.12416" lon="3.19815">
        <ele>453.20001220703</ele>
        <time>2020-10-03T14:46:44.000Z</time>
      </trkpt>
      <trkpt lat="44.1242" lon="3.19819">
        <ele>452.20001220703</ele>
        <time>2020-10-03T14:46:45.000Z</time>
      </trkpt>
      <trkpt lat="44.12424" lon="3.19823">
        <ele>451</ele>
        <time>2020-10-03T14:46:46.000Z</time>
      </trkpt>
      <trkpt lat="44.12426" lon="3.19827">
        <ele>449.79998779297</ele>
        <time>2020-10-03T14:46:47.000Z</time>
      </trkpt>
      <trkpt lat="44.12427" lon="3.1983">
        <ele>448.79998779297</ele>
        <time>2020-10-03T14:46:48.000Z</time>
      </trkpt>
      <trkpt lat="44.12427" lon="3.19832">
        <ele>447.60000610352</ele>
        <time>2020-10-03T14:46:49.000Z</time>
      </trkpt>
      <trkpt lat="44.12425" lon="3.19833">
        <ele>446.20001220703</ele>
        <time>2020-10-03T14:46:50.000Z</time>
      </trkpt>
      <trkpt lat="44.12422" lon="3.19832">
        <ele>445.39999389648</ele>
        <time>2020-10-03T14:46:51.000Z</time>
      </trkpt>
      <trkpt lat="44.12418" lon="3.19832">
        <ele>444.60000610352</ele>
        <time>2020-10-03T14:46:52.000Z</time>
      </trkpt>
      <trkpt lat="44.12411" lon="3.1983">
        <ele>442.60000610352</ele>
        <time>2020-10-03T14:46:54.000Z</time>
      </trkpt>
      <trkpt lat="44.12407" lon="3.19831">
        <ele>441.60000610352</ele>
        <time>2020-10-03T14:46:55.000Z</time>
      </trkpt>
      <trkpt lat="44.12404" lon="3.19831">
        <ele>440.60000610352</ele>
        <time>2020-10-03T14:46:56.000Z</time>
      </trkpt>
      <trkpt lat="44.12403" lon="3.19832">
        <ele>439.79998779297</ele>
        <time>2020-10-03T14:46:57.000Z</time>
      </trkpt>
      <trkpt lat="44.12401" lon="3.19831">
        <ele>438.79998779297</ele>
        <time>2020-10-03T14:46:58.000Z</time>
      </trkpt>
      <trkpt lat="44.12396" lon="3.1983">
        <ele>438</ele>
        <time>2020-10-03T14:46:59.000Z</time>
      </trkpt>
      <trkpt lat="44.12392" lon="3.19831">
        <ele>437</ele>
        <time>2020-10-03T14:47:00.000Z</time>
      </trkpt>
      <trkpt lat="44.12387" lon="3.1983">
        <ele>434.20001220703</ele>
        <time>2020-10-03T14:47:01.000Z</time>
      </trkpt>
      <trkpt lat="44.12383" lon="3.1983">
        <ele>433.20001220703</ele>
        <time>2020-10-03T14:47:02.000Z</time>
      </trkpt>
      <trkpt lat="44.12378" lon="3.19828">
        <ele>431.79998779297</ele>
        <time>2020-10-03T14:47:03.000Z</time>
      </trkpt>
      <trkpt lat="44.12373" lon="3.19826">
        <ele>430.39999389648</ele>
        <time>2020-10-03T14:47:04.000Z</time>
      </trkpt>
      <trkpt lat="44.12369" lon="3.19824">
        <ele>429.20001220703</ele>
        <time>2020-10-03T14:47:05.000Z</time>
      </trkpt>
      <trkpt lat="44.12366" lon="3.19822">
        <ele>428</ele>
        <time>2020-10-03T14:47:06.000Z</time>
      </trkpt>
      <trkpt lat="44.12363" lon="3.19821">
        <ele>426.60000610352</ele>
        <time>2020-10-03T14:47:07.000Z</time>
      </trkpt>
      <trkpt lat="44.12357" lon="3.19819">
        <ele>425.39999389648</ele>
        <time>2020-10-03T14:47:08.000Z</time>
      </trkpt>
      <trkpt lat="44.12353" lon="3.19818">
        <ele>424.20001220703</ele>
        <time>2020-10-03T14:47:09.000Z</time>
      </trkpt>
      <trkpt lat="44.1235" lon="3.19821">
        <ele>422.60000610352</ele>
        <time>2020-10-03T14:47:10.000Z</time>
      </trkpt>
      <trkpt lat="44.12349" lon="3.19823">
        <ele>421.20001220703</ele>
        <time>2020-10-03T14:47:11.000Z</time>
      </trkpt>
      <trkpt lat="44.12349" lon="3.19822">
        <ele>419.79998779297</ele>
        <time>2020-10-03T14:47:12.000Z</time>
      </trkpt>
      <trkpt lat="44.12348" lon="3.19824">
        <ele>418.60000610352</ele>
        <time>2020-10-03T14:47:13.000Z</time>
      </trkpt>
      <trkpt lat="44.12346" lon="3.19828">
        <ele>417.39999389648</ele>
        <time>2020-10-03T14:47:14.000Z</time>
      </trkpt>
      <trkpt lat="44.12343" lon="3.19833">
        <ele>415.79998779297</ele>
        <time>2020-10-03T14:47:15.000Z</time>
      </trkpt>
      <trkpt lat="44.12339" lon="3.19834">
        <ele>414.60000610352</ele>
        <time>2020-10-03T14:47:16.000Z</time>
      </trkpt>
      <trkpt lat="44.12336" lon="3.19835">
        <ele>413.39999389648</ele>
        <time>2020-10-03T14:47:17.000Z</time>
      </trkpt>
      <trkpt lat="44.12331" lon="3.19835">
        <ele>412.39999389648</ele>
        <time>2020-10-03T14:47:18.000Z</time>
      </trkpt>
      <trkpt lat="44.12327" lon="3.19837">
        <ele>411.39999389648</ele>
        <time>2020-10-03T14:47:19.000Z</time>
      </trkpt>
      <trkpt lat="44.12321" lon="3.19838">
        <ele>410.39999389648</ele>
        <time>2020-10-03T14:47:20.000Z</time>
      </trkpt>
      <trkpt lat="44.12315" lon="3.19838">
        <ele>409.39999389648</ele>
        <time>2020-10-03T14:47:21.000Z</time>
      </trkpt>
      <trkpt lat="44.12309" lon="3.19839">
        <ele>408.60000610352</ele>
        <time>2020-10-03T14:47:22.000Z</time>
      </trkpt>
      <trkpt lat="44.12303" lon="3.19841">
        <ele>407.39999389648</ele>
        <time>2020-10-03T14:47:23.000Z</time>
      </trkpt>
      <trkpt lat="44.12297" lon="3.19842">
        <ele>406.39999389648</ele>
        <time>2020-10-03T14:47:24.000Z</time>
      </trkpt>
      <trkpt lat="44.12292" lon="3.19843">
        <ele>405.39999389648</ele>
        <time>2020-10-03T14:47:25.000Z</time>
      </trkpt>
      <trkpt lat="44.12286" lon="3.19845">
        <ele>404</ele>
        <time>2020-10-03T14:47:26.000Z</time>
      </trkpt>
      <trkpt lat="44.12281" lon="3.19848">
        <ele>403</ele>
        <time>2020-10-03T14:47:27.000Z</time>
      </trkpt>
      <trkpt lat="44.12276" lon="3.1985">
        <ele>401.60000610352</ele>
        <time>2020-10-03T14:47:28.000Z</time>
      </trkpt>
      <trkpt lat="44.12273" lon="3.19849">
        <ele>400</ele>
        <time>2020-10-03T14:47:29.000Z</time>
      </trkpt>
      <trkpt lat="44.1227" lon="3.19847">
        <ele>397.60000610352</ele>
        <time>2020-10-03T14:47:30.000Z</time>
      </trkpt>
      <trkpt lat="44.12267" lon="3.19843">
        <ele>396.60000610352</ele>
        <time>2020-10-03T14:47:31.000Z</time>
      </trkpt>
      <trkpt lat="44.12266" lon="3.19839">
        <ele>395.39999389648</ele>
        <time>2020-10-03T14:47:32.000Z</time>
      </trkpt>
      <trkpt lat="44.12265" lon="3.19835">
        <ele>394</ele>
        <time>2020-10-03T14:47:33.000Z</time>
      </trkpt>
      <trkpt lat="44.12265" lon="3.19831">
        <ele>392.79998779297</ele>
        <time>2020-10-03T14:47:34.000Z</time>
      </trkpt>
      <trkpt lat="44.12267" lon="3.19827">
        <ele>391.79998779297</ele>
        <time>2020-10-03T14:47:35.000Z</time>
      </trkpt>
      <trkpt lat="44.12268" lon="3.19823">
        <ele>390.60000610352</ele>
        <time>2020-10-03T14:47:36.000Z</time>
      </trkpt>
      <trkpt lat="44.1227" lon="3.19818">
        <ele>389.60000610352</ele>
        <time>2020-10-03T14:47:37.000Z</time>
      </trkpt>
      <trkpt lat="44.12271" lon="3.19814">
        <ele>389</ele>
        <time>2020-10-03T14:47:38.000Z</time>
      </trkpt>
      <trkpt lat="44.12273" lon="3.19804">
        <ele>388</ele>
        <time>2020-10-03T14:47:40.000Z</time>
      </trkpt>
      <trkpt lat="44.12273" lon="3.19795">
        <ele>387.60000610352</ele>
        <time>2020-10-03T14:47:42.000Z</time>
      </trkpt>
      <trkpt lat="44.12273" lon="3.19788">
        <ele>387.39999389648</ele>
        <time>2020-10-03T14:47:44.000Z</time>
      </trkpt>
      <trkpt lat="44.12274" lon="3.19781">
        <ele>387.39999389648</ele>
        <time>2020-10-03T14:47:46.000Z</time>
      </trkpt>
    </trkseg>
  </trk>
</gpx>